CSB005 EPGD-KBOS
Flight info
| Callsign | CSB005 |
|---|---|
| Flight time | 7h 57m |
| Altitude | 34000 |
| Route | DEXIR Y100 MALOX L621 DEVEL DCT LUSID DCT PETIL DCT SURAT DCT BEVAM DCT NIBOG DCT DOGAL/M082F360 NATC ELSIR/N0470F380 DCT TUSKY DCT EURRO OOSHN5 |
| Aircraft | MD11/H-SDE1E2E3FGHIJ2J3J4J5M1RWXY/LB1D1 |
Departure
| Time | 2026-05-07 13:36 |
|---|---|
| Airport | Gdańsk Lech Wałęsa Airport (EPGD) |
Arrival
| Time | 2026-05-07 21:33 |
|---|---|
| Airport | Boston Logan International Airport (KBOS) |
| Time | Latitude | Longitude | Altitude | Speed | Heading |
|---|---|---|---|---|---|
| 2026-05-07 12:50 | 54.38025 | 18.46758 | 467 ft | 0 kts | 23° |
| 2026-05-07 13:25 | 54.38013 | 18.46750 | 466 ft | 4 kts | 25° |
| 2026-05-07 13:25 | 54.37990 | 18.46729 | 467 ft | 4 kts | 32° |
| 2026-05-07 13:25 | 54.37968 | 18.46702 | 467 ft | 4 kts | 42° |
| 2026-05-07 13:26 | 54.37949 | 18.46670 | 467 ft | 4 kts | 58° |
| 2026-05-07 13:26 | 54.37939 | 18.46632 | 467 ft | 4 kts | 87° |
| 2026-05-07 13:26 | 54.37940 | 18.46607 | 467 ft | 1 kts | 113° |
| 2026-05-07 13:30 | 54.37939 | 18.46608 | 467 ft | 1 kts | 113° |
| 2026-05-07 13:30 | 54.37926 | 18.46660 | 467 ft | 8 kts | 113° |
| 2026-05-07 13:30 | 54.37898 | 18.46776 | 465 ft | 13 kts | 112° |
| 2026-05-07 13:31 | 54.37860 | 18.46935 | 464 ft | 16 kts | 112° |
| 2026-05-07 13:31 | 54.37813 | 18.47121 | 465 ft | 18 kts | 114° |
| 2026-05-07 13:31 | 54.37763 | 18.47324 | 467 ft | 19 kts | 112° |
| 2026-05-07 13:31 | 54.37711 | 18.47538 | 470 ft | 19 kts | 112° |
| 2026-05-07 13:32 | 54.37661 | 18.47747 | 472 ft | 19 kts | 112° |
| 2026-05-07 13:32 | 54.37610 | 18.47948 | 474 ft | 18 kts | 114° |
| 2026-05-07 13:32 | 54.37561 | 18.48141 | 474 ft | 18 kts | 113° |
| 2026-05-07 13:32 | 54.37515 | 18.48327 | 480 ft | 16 kts | 113° |
| 2026-05-07 13:33 | 54.37473 | 18.48496 | 486 ft | 15 kts | 112° |
| 2026-05-07 13:33 | 54.37436 | 18.48652 | 497 ft | 14 kts | 112° |
| 2026-05-07 13:33 | 54.37398 | 18.48806 | 500 ft | 14 kts | 112° |
| 2026-05-07 13:33 | 54.37357 | 18.48969 | 501 ft | 16 kts | 113° |
| 2026-05-07 13:34 | 54.37313 | 18.49146 | 503 ft | 15 kts | 112° |
| 2026-05-07 13:34 | 54.37225 | 18.49266 | 504 ft | 7 kts | 195° |
| 2026-05-07 13:34 | 54.37184 | 18.49218 | 503 ft | 8 kts | 224° |
| 2026-05-07 13:35 | 54.37156 | 18.49133 | 503 ft | 8 kts | 253° |
| 2026-05-07 13:35 | 54.37161 | 18.49034 | 502 ft | 9 kts | 292° |
| 2026-05-07 13:35 | 54.37190 | 18.48914 | 502 ft | 15 kts | 292° |
| 2026-05-07 13:35 | 54.37335 | 18.48329 | 490 ft | 95 kts | 293° |
| 2026-05-07 13:36 | 54.37691 | 18.46894 | 464 ft | 162 kts | 293° |
| 2026-05-07 13:36 | 54.38145 | 18.45000 | 834 ft | 176 kts | 292° |
| 2026-05-07 13:36 | 54.38601 | 18.43050 | 1563 ft | 174 kts | 294° |
| 2026-05-07 13:36 | 54.39051 | 18.41124 | 2306 ft | 174 kts | 293° |
| 2026-05-07 13:37 | 54.39514 | 18.39125 | 2779 ft | 187 kts | 296° |
| 2026-05-07 13:37 | 54.40070 | 18.37068 | 3358 ft | 190 kts | 298° |
| 2026-05-07 13:37 | 54.40602 | 18.34967 | 3946 ft | 197 kts | 295° |
| 2026-05-07 13:37 | 54.41149 | 18.32677 | 4325 ft | 219 kts | 293° |
| 2026-05-07 13:38 | 54.41724 | 18.30153 | 4735 ft | 231 kts | 292° |
| 2026-05-07 13:38 | 54.42081 | 18.27420 | 5107 ft | 243 kts | 271° |
| 2026-05-07 13:38 | 54.41684 | 18.24573 | 5401 ft | 250 kts | 244° |
| 2026-05-07 13:38 | 54.40908 | 18.21905 | 5881 ft | 252 kts | 244° |
| 2026-05-07 13:39 | 54.40152 | 18.19120 | 6089 ft | 265 kts | 247° |
| 2026-05-07 13:39 | 54.39419 | 18.16067 | 6271 ft | 286 kts | 249° |
| 2026-05-07 13:39 | 54.38688 | 18.12873 | 6987 ft | 289 kts | 249° |
| 2026-05-07 13:39 | 54.37950 | 18.09638 | 7742 ft | 292 kts | 249° |
| 2026-05-07 13:40 | 54.37200 | 18.06384 | 8465 ft | 295 kts | 249° |
| 2026-05-07 13:40 | 54.36435 | 18.03107 | 9184 ft | 298 kts | 248° |
| 2026-05-07 13:40 | 54.35659 | 17.99793 | 9897 ft | 301 kts | 248° |
| 2026-05-07 13:40 | 54.34860 | 17.96404 | 10299 ft | 316 kts | 248° |
| 2026-05-07 13:41 | 54.34005 | 17.92790 | 10447 ft | 338 kts | 248° |
| 2026-05-07 13:41 | 54.33092 | 17.88945 | 10695 ft | 355 kts | 248° |
| 2026-05-07 13:41 | 54.32156 | 17.85012 | 11394 ft | 358 kts | 248° |
| 2026-05-07 13:41 | 54.31210 | 17.81042 | 12123 ft | 360 kts | 247° |
| 2026-05-07 13:42 | 54.30272 | 17.77118 | 12830 ft | 362 kts | 247° |
| 2026-05-07 13:42 | 54.29314 | 17.73112 | 13489 ft | 365 kts | 247° |
| 2026-05-07 13:42 | 54.28334 | 17.69028 | 14131 ft | 368 kts | 247° |
| 2026-05-07 13:42 | 54.27366 | 17.65002 | 14741 ft | 372 kts | 247° |
| 2026-05-07 13:43 | 54.26376 | 17.60894 | 15359 ft | 375 kts | 247° |
| 2026-05-07 13:43 | 54.25377 | 17.56756 | 15951 ft | 378 kts | 247° |
| 2026-05-07 13:43 | 54.24367 | 17.52577 | 16545 ft | 381 kts | 247° |
| 2026-05-07 13:43 | 54.23351 | 17.48371 | 17118 ft | 384 kts | 248° |
| 2026-05-07 13:44 | 54.22598 | 17.43978 | 17640 ft | 388 kts | 261° |
| 2026-05-07 13:44 | 54.22443 | 17.39357 | 18185 ft | 392 kts | 270° |
| 2026-05-07 13:44 | 54.22576 | 17.34681 | 18726 ft | 396 kts | 273° |
| 2026-05-07 13:44 | 54.22802 | 17.29978 | 19266 ft | 399 kts | 274° |
| 2026-05-07 13:45 | 54.23038 | 17.25241 | 19775 ft | 401 kts | 273° |
| 2026-05-07 13:45 | 54.23260 | 17.20462 | 20289 ft | 404 kts | 273° |
| 2026-05-07 13:45 | 54.23462 | 17.15670 | 20778 ft | 406 kts | 272° |
| 2026-05-07 13:45 | 54.23649 | 17.10834 | 21258 ft | 409 kts | 272° |
| 2026-05-07 13:46 | 54.23828 | 17.05967 | 21736 ft | 412 kts | 272° |
| 2026-05-07 13:46 | 54.24001 | 17.01066 | 22195 ft | 414 kts | 272° |
| 2026-05-07 13:46 | 54.24171 | 16.96133 | 22670 ft | 417 kts | 272° |
| 2026-05-07 13:46 | 54.24470 | 16.91173 | 23058 ft | 421 kts | 279° |
| 2026-05-07 13:47 | 54.25326 | 16.86373 | 23484 ft | 426 kts | 293° |
| 2026-05-07 13:47 | 54.26819 | 16.81970 | 23875 ft | 431 kts | 303° |
| 2026-05-07 13:47 | 54.28587 | 16.77890 | 24266 ft | 434 kts | 306° |
| 2026-05-07 13:47 | 54.30478 | 16.73833 | 24669 ft | 437 kts | 307° |
| 2026-05-07 13:48 | 54.32387 | 16.69746 | 25066 ft | 439 kts | 306° |
| 2026-05-07 13:48 | 54.34278 | 16.65613 | 25469 ft | 442 kts | 306° |
| 2026-05-07 13:48 | 54.36153 | 16.61419 | 25859 ft | 444 kts | 305° |
| 2026-05-07 13:48 | 54.38011 | 16.57194 | 26225 ft | 447 kts | 304° |
| 2026-05-07 13:49 | 54.39880 | 16.52901 | 26584 ft | 449 kts | 304° |
| 2026-05-07 13:49 | 54.41748 | 16.48584 | 26947 ft | 451 kts | 304° |
| 2026-05-07 13:49 | 54.43626 | 16.44229 | 27299 ft | 454 kts | 304° |
| 2026-05-07 13:49 | 54.45508 | 16.39857 | 27660 ft | 456 kts | 304° |
| 2026-05-07 13:50 | 54.47403 | 16.35450 | 27987 ft | 458 kts | 304° |
| 2026-05-07 13:50 | 54.49301 | 16.31027 | 28316 ft | 461 kts | 304° |
| 2026-05-07 13:50 | 54.51208 | 16.26575 | 28660 ft | 463 kts | 304° |
| 2026-05-07 13:50 | 54.53122 | 16.22103 | 28976 ft | 465 kts | 303° |
| 2026-05-07 13:51 | 54.55043 | 16.17607 | 29271 ft | 467 kts | 303° |
| 2026-05-07 13:51 | 54.56949 | 16.13137 | 29544 ft | 469 kts | 303° |
| 2026-05-07 13:51 | 54.58905 | 16.08542 | 29857 ft | 471 kts | 303° |
| 2026-05-07 13:51 | 54.60817 | 16.04044 | 30232 ft | 471 kts | 303° |
| 2026-05-07 13:52 | 54.62776 | 15.99430 | 30651 ft | 470 kts | 303° |
| 2026-05-07 13:52 | 54.64702 | 15.94883 | 31046 ft | 469 kts | 303° |
| 2026-05-07 13:52 | 54.66627 | 15.90328 | 31406 ft | 468 kts | 303° |
| 2026-05-07 13:52 | 54.68516 | 15.85846 | 31741 ft | 467 kts | 303° |
| 2026-05-07 13:53 | 54.70432 | 15.81295 | 32075 ft | 467 kts | 303° |
| 2026-05-07 13:53 | 54.72338 | 15.76754 | 32406 ft | 466 kts | 303° |
| 2026-05-07 13:53 | 54.74221 | 15.72196 | 32715 ft | 465 kts | 303° |
| 2026-05-07 13:53 | 54.76087 | 15.67629 | 33016 ft | 464 kts | 302° |
| 2026-05-07 13:54 | 54.77951 | 15.63063 | 33303 ft | 464 kts | 302° |
| 2026-05-07 13:54 | 54.79815 | 15.58509 | 33587 ft | 463 kts | 303° |
| 2026-05-07 13:54 | 54.81683 | 15.53954 | 33866 ft | 463 kts | 303° |
| 2026-05-07 13:54 | 54.83557 | 15.49389 | 34052 ft | 465 kts | 303° |
| 2026-05-07 13:55 | 54.85445 | 15.44784 | 34094 ft | 469 kts | 303° |
| 2026-05-07 13:55 | 54.89224 | 15.35549 | 34099 ft | 467 kts | 303° |
| 2026-05-07 13:56 | 54.92528 | 15.25944 | 34101 ft | 461 kts | 289° |
| 2026-05-07 13:56 | 54.94256 | 15.15256 | 34101 ft | 459 kts | 280° |
| 2026-05-07 13:57 | 54.95611 | 15.04403 | 34101 ft | 459 kts | 281° |
| 2026-05-07 13:57 | 54.97053 | 14.93578 | 34100 ft | 460 kts | 282° |
| 2026-05-07 13:58 | 54.98569 | 14.82748 | 34101 ft | 460 kts | 282° |
| 2026-05-07 13:58 | 55.00090 | 14.71925 | 34101 ft | 460 kts | 282° |
| 2026-05-07 13:59 | 55.01604 | 14.61094 | 34100 ft | 460 kts | 282° |
| 2026-05-07 13:59 | 55.03103 | 14.50244 | 34100 ft | 460 kts | 282° |
| 2026-05-07 14:00 | 55.04594 | 14.39397 | 34101 ft | 460 kts | 282° |
| 2026-05-07 14:00 | 55.06076 | 14.28531 | 34101 ft | 460 kts | 282° |
| 2026-05-07 14:01 | 55.07537 | 14.17737 | 34101 ft | 460 kts | 282° |
| 2026-05-07 14:01 | 55.08997 | 14.06870 | 34100 ft | 460 kts | 282° |
| 2026-05-07 14:02 | 55.10447 | 13.95991 | 34100 ft | 460 kts | 282° |
| 2026-05-07 14:02 | 55.11881 | 13.85091 | 34100 ft | 461 kts | 281° |
| 2026-05-07 14:03 | 55.13260 | 13.74172 | 34100 ft | 460 kts | 281° |
| 2026-05-07 14:03 | 55.14655 | 13.63244 | 34100 ft | 460 kts | 282° |
| 2026-05-07 14:04 | 55.16059 | 13.52353 | 34101 ft | 460 kts | 282° |
| 2026-05-07 14:04 | 55.17462 | 13.41439 | 34101 ft | 460 kts | 282° |
| 2026-05-07 14:05 | 55.18855 | 13.30495 | 34100 ft | 460 kts | 282° |
| 2026-05-07 14:05 | 55.20243 | 13.19549 | 34100 ft | 460 kts | 281° |
| 2026-05-07 14:06 | 55.21617 | 13.08600 | 34101 ft | 460 kts | 281° |
| 2026-05-07 14:06 | 55.22981 | 12.97629 | 34101 ft | 460 kts | 281° |
| 2026-05-07 14:07 | 55.24328 | 12.86735 | 34101 ft | 461 kts | 281° |
| 2026-05-07 14:07 | 55.25672 | 12.75750 | 34101 ft | 461 kts | 281° |
| 2026-05-07 14:08 | 55.27010 | 12.64744 | 34101 ft | 461 kts | 281° |
| 2026-05-07 14:08 | 55.28334 | 12.53749 | 34101 ft | 461 kts | 281° |
| 2026-05-07 14:09 | 55.29593 | 12.43169 | 34101 ft | 461 kts | 281° |
| 2026-05-07 14:09 | 55.30636 | 12.33994 | 34101 ft | 461 kts | 281° |
| 2026-05-07 14:10 | 55.31902 | 12.22948 | 34101 ft | 461 kts | 281° |
| 2026-05-07 14:10 | 55.33398 | 12.10058 | 34101 ft | 461 kts | 281° |
| 2026-05-07 14:11 | 55.34462 | 12.00877 | 34101 ft | 460 kts | 281° |
| 2026-05-07 14:11 | 55.35730 | 11.89849 | 34101 ft | 461 kts | 281° |
| 2026-05-07 14:12 | 55.36989 | 11.78796 | 34100 ft | 461 kts | 281° |
| 2026-05-07 14:12 | 55.38239 | 11.67735 | 34100 ft | 461 kts | 281° |
| 2026-05-07 14:13 | 55.39479 | 11.56657 | 34101 ft | 461 kts | 281° |
| 2026-05-07 14:13 | 55.40709 | 11.45585 | 34101 ft | 461 kts | 281° |
| 2026-05-07 14:14 | 55.41929 | 11.34498 | 34100 ft | 461 kts | 281° |
| 2026-05-07 14:14 | 55.43139 | 11.23400 | 34100 ft | 461 kts | 281° |
| 2026-05-07 14:15 | 55.44340 | 11.12295 | 34101 ft | 462 kts | 281° |
| 2026-05-07 14:15 | 55.45520 | 11.01241 | 34100 ft | 462 kts | 281° |
| 2026-05-07 14:16 | 55.46654 | 10.90037 | 34100 ft | 462 kts | 280° |
| 2026-05-07 14:16 | 55.47787 | 10.78939 | 34101 ft | 462 kts | 281° |
| 2026-05-07 14:17 | 55.48938 | 10.67801 | 34100 ft | 462 kts | 281° |
| 2026-05-07 14:17 | 55.50089 | 10.56646 | 34100 ft | 462 kts | 281° |
| 2026-05-07 14:18 | 55.51230 | 10.45511 | 34101 ft | 462 kts | 281° |
| 2026-05-07 14:18 | 55.52359 | 10.34355 | 34100 ft | 461 kts | 281° |
| 2026-05-07 14:19 | 55.53479 | 10.23219 | 34100 ft | 461 kts | 280° |
| 2026-05-07 14:19 | 55.54589 | 10.12048 | 34101 ft | 461 kts | 280° |
| 2026-05-07 14:20 | 55.55686 | 10.00892 | 34104 ft | 461 kts | 280° |
| 2026-05-07 14:20 | 55.56774 | 9.89735 | 34110 ft | 461 kts | 280° |
| 2026-05-07 14:21 | 55.57851 | 9.78558 | 34102 ft | 461 kts | 280° |
| 2026-05-07 14:21 | 55.58921 | 9.67373 | 34100 ft | 461 kts | 280° |
| 2026-05-07 14:22 | 55.59975 | 9.56186 | 34109 ft | 461 kts | 279° |
| 2026-05-07 14:22 | 55.60966 | 9.44964 | 34101 ft | 462 kts | 279° |
| 2026-05-07 14:23 | 55.61965 | 9.33807 | 34100 ft | 462 kts | 279° |
| 2026-05-07 14:23 | 55.62983 | 9.22597 | 34100 ft | 462 kts | 279° |
| 2026-05-07 14:24 | 55.64004 | 9.11366 | 34100 ft | 462 kts | 279° |
| 2026-05-07 14:24 | 55.65015 | 9.00127 | 34101 ft | 462 kts | 279° |
| 2026-05-07 14:25 | 55.66014 | 8.88879 | 34100 ft | 462 kts | 279° |
| 2026-05-07 14:25 | 55.67002 | 8.77626 | 34100 ft | 463 kts | 279° |
| 2026-05-07 14:26 | 55.67982 | 8.66351 | 34100 ft | 462 kts | 279° |
| 2026-05-07 14:26 | 55.68948 | 8.55089 | 34100 ft | 462 kts | 279° |
| 2026-05-07 14:27 | 55.69905 | 8.43814 | 34101 ft | 462 kts | 279° |
| 2026-05-07 14:27 | 55.70849 | 8.32540 | 34100 ft | 462 kts | 279° |
| 2026-05-07 14:28 | 55.71786 | 8.21262 | 34101 ft | 462 kts | 279° |
| 2026-05-07 14:28 | 55.72705 | 8.09979 | 34100 ft | 462 kts | 278° |
| 2026-05-07 14:29 | 55.73563 | 7.98685 | 34101 ft | 462 kts | 278° |
| 2026-05-07 14:29 | 55.74436 | 7.87392 | 34101 ft | 462 kts | 278° |
| 2026-05-07 14:30 | 55.75320 | 7.76173 | 34100 ft | 462 kts | 278° |
| 2026-05-07 14:30 | 55.76207 | 7.64862 | 34092 ft | 462 kts | 278° |
| 2026-05-07 14:31 | 55.77080 | 7.53558 | 34095 ft | 462 kts | 278° |
| 2026-05-07 14:31 | 55.77945 | 7.42227 | 34094 ft | 462 kts | 278° |
| 2026-05-07 14:32 | 55.78799 | 7.30905 | 34095 ft | 462 kts | 278° |
| 2026-05-07 14:32 | 55.79644 | 7.19565 | 34091 ft | 462 kts | 278° |
| 2026-05-07 14:33 | 55.80475 | 7.08247 | 34092 ft | 462 kts | 278° |
| 2026-05-07 14:33 | 55.81295 | 6.96917 | 34100 ft | 462 kts | 278° |
| 2026-05-07 14:34 | 55.82107 | 6.85571 | 34100 ft | 462 kts | 278° |
| 2026-05-07 14:34 | 55.82907 | 6.74243 | 34100 ft | 461 kts | 278° |
| 2026-05-07 14:35 | 55.83689 | 6.62888 | 34100 ft | 461 kts | 277° |
| 2026-05-07 14:35 | 55.84406 | 6.51627 | 34101 ft | 461 kts | 277° |
| 2026-05-07 14:36 | 55.85149 | 6.40232 | 34109 ft | 460 kts | 277° |
| 2026-05-07 14:36 | 55.85894 | 6.28988 | 34110 ft | 460 kts | 277° |
| 2026-05-07 14:37 | 55.86640 | 6.17681 | 34110 ft | 460 kts | 277° |
| 2026-05-07 14:37 | 55.87738 | 6.00730 | 34113 ft | 459 kts | 277° |
| 2026-05-07 14:38 | 55.88456 | 5.89434 | 34122 ft | 459 kts | 277° |
| 2026-05-07 14:38 | 55.89162 | 5.78125 | 34128 ft | 459 kts | 277° |
| 2026-05-07 14:39 | 55.89860 | 5.66804 | 34128 ft | 460 kts | 277° |
| 2026-05-07 14:39 | 55.90550 | 5.55462 | 34128 ft | 460 kts | 277° |
| 2026-05-07 14:40 | 55.91228 | 5.44121 | 34128 ft | 460 kts | 276° |
| 2026-05-07 14:40 | 55.91897 | 5.32747 | 34129 ft | 461 kts | 276° |
| 2026-05-07 14:41 | 55.92557 | 5.21358 | 34128 ft | 461 kts | 276° |
| 2026-05-07 14:41 | 55.93162 | 5.09976 | 34120 ft | 462 kts | 276° |
| 2026-05-07 14:42 | 55.93738 | 4.98555 | 34118 ft | 462 kts | 274° |
| 2026-05-07 14:42 | 55.93840 | 4.87092 | 34126 ft | 462 kts | 269° |
| 2026-05-07 14:43 | 55.93672 | 4.75608 | 34128 ft | 463 kts | 269° |
| 2026-05-07 14:43 | 55.93501 | 4.64127 | 34128 ft | 462 kts | 269° |
| 2026-05-07 14:44 | 55.93352 | 4.52729 | 34128 ft | 462 kts | 269° |
| 2026-05-07 14:44 | 55.93202 | 4.41274 | 34128 ft | 462 kts | 269° |
| 2026-05-07 14:45 | 55.93042 | 4.29831 | 34127 ft | 461 kts | 269° |
| 2026-05-07 14:45 | 55.92872 | 4.18399 | 34128 ft | 461 kts | 269° |
| 2026-05-07 14:46 | 55.92690 | 4.06950 | 34128 ft | 461 kts | 268° |
| 2026-05-07 14:46 | 55.92498 | 3.95529 | 34128 ft | 461 kts | 268° |
| 2026-05-07 14:47 | 55.92295 | 3.84106 | 34128 ft | 461 kts | 268° |
| 2026-05-07 14:47 | 55.92082 | 3.72686 | 34129 ft | 461 kts | 268° |
| 2026-05-07 14:48 | 55.91894 | 3.63187 | 34128 ft | 461 kts | 268° |
| 2026-05-07 14:48 | 55.91633 | 3.51777 | 34128 ft | 462 kts | 266° |
| 2026-05-07 14:49 | 55.91134 | 3.40349 | 34128 ft | 462 kts | 265° |
| 2026-05-07 14:49 | 55.90589 | 3.28928 | 34129 ft | 463 kts | 265° |
| 2026-05-07 14:50 | 55.90062 | 3.17482 | 34128 ft | 463 kts | 265° |
| 2026-05-07 14:50 | 55.89540 | 3.06046 | 34128 ft | 463 kts | 265° |
| 2026-05-07 14:51 | 55.89008 | 2.94611 | 34128 ft | 463 kts | 265° |
| 2026-05-07 14:51 | 55.88466 | 2.83178 | 34128 ft | 463 kts | 265° |
| 2026-05-07 14:52 | 55.87913 | 2.71735 | 34129 ft | 463 kts | 265° |
| 2026-05-07 14:52 | 55.87349 | 2.60320 | 34127 ft | 462 kts | 265° |
| 2026-05-07 14:53 | 55.86775 | 2.48901 | 34119 ft | 462 kts | 265° |
| 2026-05-07 14:53 | 55.86192 | 2.37511 | 34119 ft | 462 kts | 265° |
| 2026-05-07 14:54 | 55.85601 | 2.26194 | 34119 ft | 461 kts | 265° |
| 2026-05-07 14:54 | 55.84998 | 2.14824 | 34115 ft | 461 kts | 264° |
| 2026-05-07 14:55 | 55.84369 | 2.03453 | 34103 ft | 461 kts | 264° |
| 2026-05-07 14:55 | 55.83687 | 1.92113 | 34101 ft | 461 kts | 264° |
| 2026-05-07 14:56 | 55.83025 | 1.80766 | 34080 ft | 461 kts | 264° |
| 2026-05-07 14:56 | 55.82375 | 1.69402 | 34074 ft | 461 kts | 264° |
| 2026-05-07 14:57 | 55.81721 | 1.58050 | 34073 ft | 461 kts | 264° |
| 2026-05-07 14:57 | 55.81053 | 1.46683 | 34071 ft | 462 kts | 264° |
| 2026-05-07 14:58 | 55.80374 | 1.35327 | 34071 ft | 462 kts | 264° |
| 2026-05-07 14:58 | 55.79685 | 1.23948 | 34063 ft | 463 kts | 264° |
| 2026-05-07 14:59 | 55.78984 | 1.12575 | 34065 ft | 463 kts | 264° |
| 2026-05-07 14:59 | 55.78277 | 1.01283 | 34063 ft | 463 kts | 263° |
| 2026-05-07 15:00 | 55.77556 | 0.89910 | 34064 ft | 463 kts | 263° |
| 2026-05-07 15:00 | 55.76825 | 0.78551 | 34063 ft | 463 kts | 263° |
| 2026-05-07 15:01 | 55.76083 | 0.67183 | 34056 ft | 463 kts | 263° |
| 2026-05-07 15:01 | 55.75310 | 0.55832 | 34054 ft | 463 kts | 262° |
| 2026-05-07 15:02 | 55.74491 | 0.44503 | 34054 ft | 462 kts | 263° |
| 2026-05-07 15:02 | 55.73696 | 0.33180 | 34054 ft | 462 kts | 263° |
| 2026-05-07 15:03 | 55.73011 | 0.21853 | 34056 ft | 461 kts | 265° |
| 2026-05-07 15:03 | 55.72647 | 0.10498 | 34046 ft | 461 kts | 267° |
| 2026-05-07 15:04 | 55.72345 | -0.00810 | 34024 ft | 462 kts | 267° |
| 2026-05-07 15:04 | 55.72017 | -0.12251 | 34014 ft | 461 kts | 266° |
| 2026-05-07 15:05 | 55.71668 | -0.23536 | 34018 ft | 462 kts | 266° |
| 2026-05-07 15:05 | 55.71298 | -0.34983 | 34015 ft | 462 kts | 266° |
| 2026-05-07 15:06 | 55.70921 | -0.46355 | 34016 ft | 462 kts | 266° |
| 2026-05-07 15:06 | 55.70534 | -0.57662 | 34020 ft | 462 kts | 265° |
| 2026-05-07 15:07 | 55.70137 | -0.69025 | 34012 ft | 461 kts | 265° |
| 2026-05-07 15:07 | 55.69731 | -0.80380 | 34021 ft | 461 kts | 265° |
| 2026-05-07 15:08 | 55.69311 | -0.91740 | 34016 ft | 461 kts | 265° |
| 2026-05-07 15:08 | 55.68881 | -1.03095 | 34020 ft | 461 kts | 265° |
| 2026-05-07 15:09 | 55.68442 | -1.14425 | 34017 ft | 461 kts | 265° |
| 2026-05-07 15:09 | 55.67965 | -1.25742 | 34010 ft | 461 kts | 264° |
| 2026-05-07 15:10 | 55.67452 | -1.37068 | 34007 ft | 461 kts | 264° |
| 2026-05-07 15:10 | 55.66962 | -1.48413 | 34007 ft | 461 kts | 264° |
| 2026-05-07 15:11 | 55.66479 | -1.59735 | 34007 ft | 461 kts | 264° |
| 2026-05-07 15:11 | 55.65990 | -1.71049 | 34007 ft | 460 kts | 264° |
| 2026-05-07 15:12 | 55.65492 | -1.82303 | 33993 ft | 460 kts | 264° |
| 2026-05-07 15:12 | 55.64983 | -1.93602 | 33990 ft | 460 kts | 264° |
| 2026-05-07 15:13 | 55.64459 | -2.04895 | 33991 ft | 460 kts | 264° |
| 2026-05-07 15:13 | 55.63926 | -2.16193 | 33990 ft | 460 kts | 264° |
| 2026-05-07 15:14 | 55.63383 | -2.27484 | 33990 ft | 460 kts | 264° |
| 2026-05-07 15:14 | 55.62830 | -2.38766 | 33989 ft | 460 kts | 263° |
| 2026-05-07 15:15 | 55.62267 | -2.50051 | 33990 ft | 460 kts | 263° |
| 2026-05-07 15:15 | 55.61693 | -2.61338 | 33981 ft | 461 kts | 263° |
| 2026-05-07 15:16 | 55.61081 | -2.72622 | 33967 ft | 461 kts | 263° |
| 2026-05-07 15:16 | 55.60434 | -2.83893 | 33963 ft | 460 kts | 263° |
| 2026-05-07 15:17 | 55.59807 | -2.95171 | 33957 ft | 461 kts | 263° |
| 2026-05-07 15:17 | 55.59189 | -3.06461 | 33951 ft | 461 kts | 263° |
| 2026-05-07 15:18 | 55.58566 | -3.17737 | 33946 ft | 461 kts | 263° |
| 2026-05-07 15:18 | 55.57930 | -3.28994 | 33953 ft | 460 kts | 263° |
| 2026-05-07 15:19 | 55.57284 | -3.40238 | 33945 ft | 460 kts | 262° |
| 2026-05-07 15:19 | 55.56632 | -3.51476 | 33945 ft | 458 kts | 262° |
| 2026-05-07 15:20 | 55.55968 | -3.62691 | 33945 ft | 459 kts | 262° |
| 2026-05-07 15:20 | 55.55289 | -3.73917 | 33951 ft | 459 kts | 262° |
| 2026-05-07 15:21 | 55.54603 | -3.85117 | 33944 ft | 458 kts | 262° |
| 2026-05-07 15:21 | 55.53912 | -3.96242 | 33939 ft | 458 kts | 262° |
| 2026-05-07 15:22 | 55.53207 | -4.07433 | 33937 ft | 458 kts | 262° |
| 2026-05-07 15:22 | 55.52464 | -4.18607 | 33946 ft | 458 kts | 261° |
| 2026-05-07 15:23 | 55.51686 | -4.29765 | 33939 ft | 458 kts | 261° |
| 2026-05-07 15:23 | 55.50932 | -4.40926 | 33936 ft | 458 kts | 261° |
| 2026-05-07 15:24 | 55.50183 | -4.52115 | 33936 ft | 459 kts | 261° |
| 2026-05-07 15:24 | 55.49427 | -4.63300 | 33935 ft | 459 kts | 261° |
| 2026-05-07 15:25 | 55.48659 | -4.74494 | 33933 ft | 459 kts | 261° |
| 2026-05-07 15:25 | 55.47886 | -4.85596 | 33933 ft | 459 kts | 261° |
| 2026-05-07 15:26 | 55.47097 | -4.96801 | 33933 ft | 460 kts | 261° |
| 2026-05-07 15:26 | 55.46298 | -5.07982 | 33935 ft | 460 kts | 261° |
| 2026-05-07 15:27 | 55.45492 | -5.19110 | 33934 ft | 460 kts | 261° |
| 2026-05-07 15:27 | 55.44671 | -5.30285 | 33934 ft | 460 kts | 260° |
| 2026-05-07 15:28 | 55.43982 | -5.39566 | 33934 ft | 459 kts | 260° |
| 2026-05-07 15:28 | 55.43147 | -5.50709 | 33935 ft | 459 kts | 260° |
| 2026-05-07 15:29 | 55.42279 | -5.61901 | 33923 ft | 459 kts | 259° |
| 2026-05-07 15:29 | 55.41373 | -5.72949 | 33915 ft | 458 kts | 259° |
| 2026-05-07 15:30 | 55.40482 | -5.84056 | 33915 ft | 458 kts | 259° |
| 2026-05-07 15:30 | 55.39603 | -5.95171 | 33919 ft | 458 kts | 259° |
| 2026-05-07 15:31 | 55.38717 | -6.06277 | 33915 ft | 458 kts | 259° |
| 2026-05-07 15:31 | 55.37822 | -6.17357 | 33917 ft | 457 kts | 259° |
| 2026-05-07 15:32 | 55.36917 | -6.28421 | 33919 ft | 457 kts | 259° |
| 2026-05-07 15:32 | 55.36003 | -6.39501 | 33915 ft | 458 kts | 259° |
| 2026-05-07 15:33 | 55.35085 | -6.50509 | 33915 ft | 458 kts | 259° |
| 2026-05-07 15:33 | 55.34150 | -6.61570 | 33915 ft | 458 kts | 259° |
| 2026-05-07 15:34 | 55.33203 | -6.72641 | 33914 ft | 458 kts | 259° |
| 2026-05-07 15:34 | 55.32247 | -6.83689 | 33915 ft | 457 kts | 259° |
| 2026-05-07 15:35 | 55.31284 | -6.94728 | 33915 ft | 457 kts | 259° |
| 2026-05-07 15:35 | 55.30296 | -7.05750 | 33918 ft | 456 kts | 258° |
| 2026-05-07 15:36 | 55.29258 | -7.16743 | 33918 ft | 457 kts | 258° |
| 2026-05-07 15:36 | 55.28239 | -7.27740 | 33907 ft | 456 kts | 258° |
| 2026-05-07 15:37 | 55.27241 | -7.38654 | 33908 ft | 455 kts | 258° |
| 2026-05-07 15:37 | 55.26234 | -7.49632 | 33915 ft | 455 kts | 258° |
| 2026-05-07 15:38 | 55.25213 | -7.60600 | 33915 ft | 455 kts | 258° |
| 2026-05-07 15:38 | 55.24183 | -7.71529 | 33914 ft | 455 kts | 258° |
| 2026-05-07 15:39 | 55.23146 | -7.82469 | 33910 ft | 454 kts | 258° |
| 2026-05-07 15:39 | 55.22100 | -7.93388 | 33908 ft | 454 kts | 258° |
| 2026-05-07 15:40 | 55.21043 | -8.04312 | 33906 ft | 454 kts | 258° |
| 2026-05-07 15:40 | 55.19980 | -8.15192 | 33905 ft | 453 kts | 258° |
| 2026-05-07 15:41 | 55.18906 | -8.26090 | 33907 ft | 453 kts | 258° |
| 2026-05-07 15:41 | 55.17829 | -8.36888 | 33907 ft | 454 kts | 258° |
| 2026-05-07 15:42 | 55.16727 | -8.47751 | 33908 ft | 453 kts | 257° |
| 2026-05-07 15:42 | 55.15571 | -8.58573 | 33904 ft | 453 kts | 257° |
| 2026-05-07 15:43 | 55.14428 | -8.69427 | 33907 ft | 453 kts | 257° |
| 2026-05-07 15:43 | 55.13302 | -8.80271 | 33905 ft | 453 kts | 257° |
| 2026-05-07 15:44 | 55.12169 | -8.91121 | 33904 ft | 453 kts | 257° |
| 2026-05-07 15:44 | 55.11028 | -9.01952 | 33908 ft | 453 kts | 257° |
| 2026-05-07 15:45 | 55.09878 | -9.12790 | 33904 ft | 453 kts | 257° |
| 2026-05-07 15:45 | 55.08722 | -9.23593 | 33905 ft | 453 kts | 257° |
| 2026-05-07 15:46 | 55.06964 | -9.39796 | 33904 ft | 453 kts | 257° |
| 2026-05-07 15:47 | 55.05778 | -9.50582 | 33907 ft | 453 kts | 257° |
| 2026-05-07 15:47 | 55.04594 | -9.61301 | 33914 ft | 452 kts | 257° |
| 2026-05-07 15:48 | 55.03395 | -9.72085 | 33915 ft | 453 kts | 257° |
| 2026-05-07 15:48 | 55.02185 | -9.82842 | 33914 ft | 453 kts | 257° |
| 2026-05-07 15:49 | 55.00896 | -9.93562 | 33914 ft | 452 kts | 253° |
| 2026-05-07 15:49 | 54.99147 | -10.04053 | 33914 ft | 451 kts | 251° |
| 2026-05-07 15:50 | 54.97267 | -10.14484 | 33916 ft | 450 kts | 251° |
| 2026-05-07 15:50 | 54.95412 | -10.24890 | 33915 ft | 450 kts | 251° |
| 2026-05-07 15:51 | 54.93582 | -10.35238 | 33915 ft | 450 kts | 251° |
| 2026-05-07 15:51 | 54.91741 | -10.45636 | 33916 ft | 450 kts | 251° |
| 2026-05-07 15:52 | 54.89889 | -10.56022 | 33915 ft | 450 kts | 251° |
| 2026-05-07 15:52 | 54.88025 | -10.66411 | 33914 ft | 450 kts | 251° |
| 2026-05-07 15:53 | 54.86157 | -10.76780 | 33915 ft | 450 kts | 251° |
| 2026-05-07 15:53 | 54.84279 | -10.87143 | 33917 ft | 450 kts | 250° |
| 2026-05-07 15:54 | 54.82392 | -10.97498 | 33916 ft | 450 kts | 250° |
| 2026-05-07 15:54 | 54.80498 | -11.07828 | 33915 ft | 449 kts | 250° |
| 2026-05-07 15:55 | 54.78596 | -11.18153 | 33915 ft | 449 kts | 250° |
| 2026-05-07 15:55 | 54.76686 | -11.28450 | 33915 ft | 449 kts | 250° |
| 2026-05-07 15:56 | 54.74737 | -11.38650 | 33915 ft | 449 kts | 250° |
| 2026-05-07 15:56 | 54.72771 | -11.48916 | 33916 ft | 449 kts | 250° |
| 2026-05-07 15:57 | 54.70824 | -11.59184 | 33915 ft | 449 kts | 250° |
| 2026-05-07 15:57 | 54.68879 | -11.69443 | 33915 ft | 449 kts | 250° |
| 2026-05-07 15:58 | 54.66931 | -11.79676 | 33918 ft | 449 kts | 250° |
| 2026-05-07 15:58 | 54.64969 | -11.89925 | 33916 ft | 449 kts | 250° |
| 2026-05-07 15:59 | 54.63008 | -12.00112 | 33914 ft | 449 kts | 250° |
| 2026-05-07 15:59 | 54.61032 | -12.10329 | 33915 ft | 448 kts | 250° |
| 2026-05-07 16:00 | 54.59032 | -12.20592 | 33915 ft | 448 kts | 250° |
| 2026-05-07 16:00 | 54.57048 | -12.30733 | 33916 ft | 448 kts | 249° |
| 2026-05-07 16:01 | 54.55045 | -12.40902 | 33915 ft | 448 kts | 249° |
| 2026-05-07 16:01 | 54.53034 | -12.51066 | 33917 ft | 448 kts | 249° |
| 2026-05-07 16:02 | 54.51018 | -12.61217 | 33915 ft | 448 kts | 249° |
| 2026-05-07 16:02 | 54.48967 | -12.71339 | 33919 ft | 448 kts | 249° |
| 2026-05-07 16:03 | 54.46889 | -12.81429 | 33941 ft | 448 kts | 249° |
| 2026-05-07 16:03 | 54.44830 | -12.91536 | 33948 ft | 448 kts | 249° |
| 2026-05-07 16:04 | 54.42780 | -13.01629 | 33950 ft | 447 kts | 249° |
| 2026-05-07 16:04 | 54.40726 | -13.11700 | 33938 ft | 447 kts | 249° |
| 2026-05-07 16:05 | 54.38664 | -13.21766 | 33937 ft | 447 kts | 249° |
| 2026-05-07 16:05 | 54.36588 | -13.31832 | 33943 ft | 447 kts | 249° |
| 2026-05-07 16:06 | 54.34506 | -13.41885 | 33951 ft | 447 kts | 249° |
| 2026-05-07 16:06 | 54.32429 | -13.51866 | 33954 ft | 447 kts | 249° |
| 2026-05-07 16:07 | 54.30319 | -13.61955 | 33945 ft | 447 kts | 249° |
| 2026-05-07 16:07 | 54.28232 | -13.71889 | 33945 ft | 446 kts | 249° |
| 2026-05-07 16:08 | 54.26105 | -13.81946 | 33938 ft | 447 kts | 249° |
| 2026-05-07 16:08 | 54.23988 | -13.91897 | 33938 ft | 447 kts | 249° |
| 2026-05-07 16:09 | 54.21853 | -14.01874 | 33934 ft | 447 kts | 248° |
| 2026-05-07 16:09 | 54.20037 | -14.10137 | 33933 ft | 447 kts | 248° |
| 2026-05-07 16:10 | 54.17508 | -14.21703 | 33934 ft | 447 kts | 248° |
| 2026-05-07 16:10 | 54.15701 | -14.30030 | 33933 ft | 447 kts | 248° |
| 2026-05-07 16:11 | 54.13542 | -14.39967 | 33934 ft | 447 kts | 248° |
| 2026-05-07 16:11 | 54.11371 | -14.49904 | 33934 ft | 447 kts | 248° |
| 2026-05-07 16:12 | 54.09204 | -14.59770 | 33934 ft | 447 kts | 248° |
| 2026-05-07 16:12 | 54.07018 | -14.69681 | 33934 ft | 447 kts | 248° |
| 2026-05-07 16:13 | 54.04816 | -14.79618 | 34187 ft | 449 kts | 248° |
| 2026-05-07 16:13 | 54.03710 | -14.84586 | 34439 ft | 449 kts | 248° |
| 2026-05-07 16:13 | 54.02601 | -14.89559 | 34691 ft | 450 kts | 248° |
| 2026-05-07 16:13 | 54.01487 | -14.94545 | 34923 ft | 450 kts | 248° |
| 2026-05-07 16:14 | 54.00440 | -14.99579 | 35125 ft | 451 kts | 254° |
| 2026-05-07 16:14 | 53.99880 | -15.04828 | 35351 ft | 453 kts | 264° |
| 2026-05-07 16:14 | 53.99818 | -15.10182 | 35589 ft | 454 kts | 270° |
| 2026-05-07 16:14 | 53.99980 | -15.15552 | 35823 ft | 454 kts | 272° |
| 2026-05-07 16:15 | 54.00196 | -15.20922 | 35912 ft | 457 kts | 272° |
| 2026-05-07 16:15 | 54.00563 | -15.31749 | 35934 ft | 458 kts | 271° |
| 2026-05-07 16:16 | 54.00807 | -15.42549 | 35932 ft | 456 kts | 270° |
| 2026-05-07 16:16 | 54.00994 | -15.53316 | 35934 ft | 456 kts | 270° |
| 2026-05-07 16:17 | 54.01166 | -15.64039 | 35934 ft | 456 kts | 270° |
| 2026-05-07 16:17 | 54.01336 | -15.74894 | 35934 ft | 456 kts | 270° |
| 2026-05-07 16:18 | 54.01496 | -15.85675 | 35934 ft | 456 kts | 270° |
| 2026-05-07 16:18 | 54.01645 | -15.96399 | 35934 ft | 456 kts | 270° |
| 2026-05-07 16:19 | 54.01785 | -16.07172 | 35943 ft | 456 kts | 270° |
| 2026-05-07 16:19 | 54.01915 | -16.17958 | 35943 ft | 456 kts | 270° |
| 2026-05-07 16:20 | 54.02035 | -16.28740 | 35943 ft | 456 kts | 270° |
| 2026-05-07 16:20 | 54.02146 | -16.39537 | 35943 ft | 456 kts | 270° |
| 2026-05-07 16:21 | 54.02210 | -16.50310 | 35943 ft | 456 kts | 269° |
| 2026-05-07 16:21 | 54.02259 | -16.61037 | 35943 ft | 456 kts | 269° |
| 2026-05-07 16:22 | 54.02327 | -16.71841 | 35944 ft | 456 kts | 270° |
| 2026-05-07 16:22 | 54.02399 | -16.82637 | 35943 ft | 457 kts | 270° |
| 2026-05-07 16:23 | 54.02462 | -16.93434 | 35943 ft | 456 kts | 269° |
| 2026-05-07 16:23 | 54.02515 | -17.04230 | 35943 ft | 457 kts | 269° |
| 2026-05-07 16:24 | 54.02558 | -17.15031 | 35943 ft | 456 kts | 269° |
| 2026-05-07 16:24 | 54.02591 | -17.25834 | 35943 ft | 456 kts | 269° |
| 2026-05-07 16:25 | 54.02614 | -17.36619 | 35943 ft | 456 kts | 269° |
| 2026-05-07 16:25 | 54.02630 | -17.47405 | 35943 ft | 456 kts | 269° |
| 2026-05-07 16:26 | 54.02635 | -17.58200 | 35944 ft | 456 kts | 269° |
| 2026-05-07 16:26 | 54.02630 | -17.68979 | 35943 ft | 456 kts | 269° |
| 2026-05-07 16:27 | 54.02616 | -17.79757 | 35943 ft | 455 kts | 269° |
| 2026-05-07 16:27 | 54.02558 | -17.90518 | 35943 ft | 455 kts | 268° |
| 2026-05-07 16:28 | 54.02477 | -18.01276 | 35943 ft | 455 kts | 269° |
| 2026-05-07 16:28 | 54.02418 | -18.11985 | 35943 ft | 455 kts | 269° |
| 2026-05-07 16:29 | 54.02364 | -18.22758 | 35944 ft | 456 kts | 269° |
| 2026-05-07 16:29 | 54.02304 | -18.33554 | 35951 ft | 456 kts | 269° |
| 2026-05-07 16:30 | 54.02231 | -18.44354 | 35953 ft | 456 kts | 269° |
| 2026-05-07 16:30 | 54.02148 | -18.55145 | 35953 ft | 456 kts | 268° |
| 2026-05-07 16:31 | 54.02056 | -18.65947 | 35953 ft | 457 kts | 268° |
| 2026-05-07 16:31 | 54.01953 | -18.76773 | 35952 ft | 457 kts | 268° |
| 2026-05-07 16:32 | 54.01840 | -18.87600 | 35952 ft | 458 kts | 268° |
| 2026-05-07 16:32 | 54.01719 | -18.98450 | 35953 ft | 458 kts | 268° |
| 2026-05-07 16:33 | 54.01590 | -19.09229 | 35953 ft | 459 kts | 268° |
| 2026-05-07 16:33 | 54.01449 | -19.20086 | 35952 ft | 459 kts | 268° |
| 2026-05-07 16:34 | 54.01269 | -19.30952 | 35953 ft | 460 kts | 268° |
| 2026-05-07 16:34 | 54.01055 | -19.41843 | 35953 ft | 461 kts | 268° |
| 2026-05-07 16:35 | 54.00865 | -19.52724 | 35953 ft | 460 kts | 268° |
| 2026-05-07 16:35 | 54.00683 | -19.63621 | 35953 ft | 461 kts | 268° |
| 2026-05-07 16:36 | 54.00495 | -19.74507 | 35953 ft | 461 kts | 268° |
| 2026-05-07 16:36 | 54.00295 | -19.85395 | 35953 ft | 461 kts | 268° |
| 2026-05-07 16:37 | 53.99990 | -19.96270 | 35953 ft | 460 kts | 265° |
| 2026-05-07 16:37 | 53.99392 | -20.07107 | 35953 ft | 461 kts | 264° |
| 2026-05-07 16:38 | 53.98740 | -20.17942 | 35953 ft | 460 kts | 264° |
| 2026-05-07 16:38 | 53.98104 | -20.28772 | 35953 ft | 461 kts | 264° |
| 2026-05-07 16:39 | 53.97472 | -20.39601 | 35997 ft | 460 kts | 264° |
| 2026-05-07 16:39 | 53.96839 | -20.50351 | 36034 ft | 461 kts | 264° |
| 2026-05-07 16:40 | 53.96187 | -20.61208 | 36036 ft | 460 kts | 264° |
| 2026-05-07 16:40 | 53.95525 | -20.72034 | 36035 ft | 460 kts | 264° |
| 2026-05-07 16:41 | 53.94855 | -20.82853 | 36035 ft | 460 kts | 264° |
| 2026-05-07 16:41 | 53.94176 | -20.93672 | 36037 ft | 460 kts | 264° |
| 2026-05-07 16:42 | 53.93488 | -21.04476 | 36053 ft | 460 kts | 264° |
| 2026-05-07 16:42 | 53.92793 | -21.15227 | 36048 ft | 461 kts | 264° |
| 2026-05-07 16:43 | 53.92083 | -21.26037 | 36044 ft | 461 kts | 264° |
| 2026-05-07 16:43 | 53.91339 | -21.36863 | 36040 ft | 462 kts | 263° |
| 2026-05-07 16:44 | 53.90560 | -21.47664 | 36042 ft | 462 kts | 263° |
| 2026-05-07 16:44 | 53.89797 | -21.58512 | 36042 ft | 462 kts | 263° |
| 2026-05-07 16:45 | 53.89049 | -21.69281 | 36040 ft | 462 kts | 263° |
| 2026-05-07 16:45 | 53.88287 | -21.80134 | 36047 ft | 463 kts | 263° |
| 2026-05-07 16:46 | 53.87516 | -21.90979 | 36051 ft | 463 kts | 263° |
| 2026-05-07 16:46 | 53.86737 | -22.01831 | 36040 ft | 463 kts | 263° |
| 2026-05-07 16:47 | 53.85947 | -22.12669 | 36039 ft | 463 kts | 263° |
| 2026-05-07 16:47 | 53.85143 | -22.23509 | 36039 ft | 463 kts | 263° |
| 2026-05-07 16:48 | 53.84336 | -22.34278 | 36050 ft | 464 kts | 263° |
| 2026-05-07 16:48 | 53.83514 | -22.45135 | 36052 ft | 464 kts | 263° |
| 2026-05-07 16:49 | 53.82683 | -22.55962 | 36041 ft | 464 kts | 263° |
| 2026-05-07 16:49 | 53.81985 | -22.64959 | 36053 ft | 464 kts | 263° |
| 2026-05-07 16:50 | 53.81119 | -22.75766 | 36043 ft | 464 kts | 262° |
| 2026-05-07 16:50 | 53.80208 | -22.86569 | 36047 ft | 464 kts | 263° |
| 2026-05-07 16:51 | 53.79318 | -22.97392 | 36042 ft | 464 kts | 263° |
| 2026-05-07 16:51 | 53.78433 | -23.08217 | 36040 ft | 464 kts | 263° |
| 2026-05-07 16:52 | 53.77547 | -23.19018 | 36043 ft | 464 kts | 263° |
| 2026-05-07 16:52 | 53.76649 | -23.29831 | 36046 ft | 464 kts | 263° |
| 2026-05-07 16:53 | 53.75741 | -23.40647 | 36049 ft | 465 kts | 263° |
| 2026-05-07 16:53 | 53.74822 | -23.51466 | 36062 ft | 465 kts | 263° |
| 2026-05-07 16:54 | 53.73892 | -23.62287 | 36043 ft | 465 kts | 263° |
| 2026-05-07 16:54 | 53.72951 | -23.73104 | 36037 ft | 465 kts | 263° |
| 2026-05-07 16:55 | 53.72000 | -23.83934 | 36036 ft | 466 kts | 262° |
| 2026-05-07 16:55 | 53.71040 | -23.94752 | 36036 ft | 466 kts | 262° |
| 2026-05-07 16:56 | 53.70069 | -24.05575 | 36063 ft | 466 kts | 262° |
| 2026-05-07 16:56 | 53.68540 | -24.21786 | 36071 ft | 466 kts | 262° |
| 2026-05-07 16:57 | 53.67511 | -24.32583 | 36070 ft | 466 kts | 262° |
| 2026-05-07 16:57 | 53.66509 | -24.43306 | 36077 ft | 466 kts | 262° |
| 2026-05-07 16:58 | 53.65495 | -24.54099 | 36083 ft | 466 kts | 262° |
| 2026-05-07 16:58 | 53.64472 | -24.64883 | 36081 ft | 466 kts | 262° |
| 2026-05-07 16:59 | 53.63438 | -24.75659 | 36081 ft | 466 kts | 262° |
| 2026-05-07 16:59 | 53.62395 | -24.86436 | 36083 ft | 466 kts | 262° |
| 2026-05-07 17:00 | 53.61344 | -24.97216 | 36081 ft | 466 kts | 262° |
| 2026-05-07 17:00 | 53.60281 | -25.07982 | 36082 ft | 466 kts | 262° |
| 2026-05-07 17:01 | 53.59207 | -25.18740 | 36081 ft | 466 kts | 262° |
| 2026-05-07 17:01 | 53.58125 | -25.29493 | 36082 ft | 466 kts | 262° |
| 2026-05-07 17:02 | 53.57029 | -25.40265 | 36082 ft | 466 kts | 262° |
| 2026-05-07 17:02 | 53.55921 | -25.50999 | 36083 ft | 466 kts | 261° |
| 2026-05-07 17:03 | 53.54754 | -25.61731 | 36082 ft | 467 kts | 261° |
| 2026-05-07 17:03 | 53.53608 | -25.72457 | 36084 ft | 466 kts | 262° |
| 2026-05-07 17:04 | 53.52472 | -25.83203 | 36109 ft | 467 kts | 262° |
| 2026-05-07 17:04 | 53.51340 | -25.93868 | 36111 ft | 467 kts | 262° |
| 2026-05-07 17:05 | 53.50191 | -26.04598 | 36110 ft | 466 kts | 262° |
| 2026-05-07 17:05 | 53.49029 | -26.15324 | 36112 ft | 467 kts | 262° |
| 2026-05-07 17:06 | 53.47858 | -26.26046 | 36107 ft | 467 kts | 262° |
| 2026-05-07 17:06 | 53.46678 | -26.36752 | 36111 ft | 466 kts | 262° |
| 2026-05-07 17:07 | 53.45489 | -26.47453 | 36112 ft | 466 kts | 262° |
| 2026-05-07 17:07 | 53.44291 | -26.58147 | 36107 ft | 466 kts | 262° |
| 2026-05-07 17:08 | 53.43081 | -26.68847 | 36112 ft | 466 kts | 262° |
| 2026-05-07 17:08 | 53.41863 | -26.79544 | 36112 ft | 466 kts | 261° |
| 2026-05-07 17:09 | 53.40617 | -26.90217 | 36140 ft | 467 kts | 261° |
| 2026-05-07 17:09 | 53.39327 | -27.00887 | 36143 ft | 466 kts | 261° |
| 2026-05-07 17:10 | 53.38060 | -27.11530 | 36140 ft | 466 kts | 261° |
| 2026-05-07 17:10 | 53.36812 | -27.22103 | 36143 ft | 466 kts | 261° |
| 2026-05-07 17:11 | 53.35550 | -27.32746 | 36132 ft | 465 kts | 261° |
| 2026-05-07 17:11 | 53.34280 | -27.43366 | 36137 ft | 466 kts | 261° |
| 2026-05-07 17:12 | 53.32999 | -27.53986 | 36134 ft | 465 kts | 261° |
| 2026-05-07 17:12 | 53.31706 | -27.64607 | 36141 ft | 465 kts | 261° |
| 2026-05-07 17:13 | 53.30406 | -27.75209 | 36134 ft | 465 kts | 261° |
| 2026-05-07 17:13 | 53.29095 | -27.85815 | 36136 ft | 465 kts | 261° |
| 2026-05-07 17:14 | 53.27777 | -27.96389 | 36131 ft | 465 kts | 261° |
| 2026-05-07 17:14 | 53.26446 | -28.06983 | 36135 ft | 465 kts | 261° |
| 2026-05-07 17:15 | 53.25110 | -28.17544 | 36141 ft | 464 kts | 261° |
| 2026-05-07 17:15 | 53.23738 | -28.28085 | 36138 ft | 465 kts | 261° |
| 2026-05-07 17:16 | 53.22338 | -28.38612 | 36142 ft | 464 kts | 261° |
| 2026-05-07 17:16 | 53.20957 | -28.49137 | 36135 ft | 464 kts | 261° |
| 2026-05-07 17:17 | 53.19595 | -28.59580 | 36125 ft | 464 kts | 261° |
| 2026-05-07 17:17 | 53.18218 | -28.70089 | 36127 ft | 464 kts | 261° |
| 2026-05-07 17:18 | 53.16831 | -28.80585 | 36129 ft | 463 kts | 261° |
| 2026-05-07 17:18 | 53.15428 | -28.91123 | 36133 ft | 463 kts | 261° |
| 2026-05-07 17:19 | 53.14030 | -29.01528 | 36124 ft | 462 kts | 261° |
| 2026-05-07 17:19 | 53.12617 | -29.11987 | 36123 ft | 463 kts | 261° |
| 2026-05-07 17:20 | 53.11185 | -29.22496 | 36128 ft | 463 kts | 261° |
| 2026-05-07 17:20 | 53.09762 | -29.32883 | 36130 ft | 462 kts | 261° |
| 2026-05-07 17:21 | 53.08321 | -29.43315 | 36125 ft | 462 kts | 261° |
| 2026-05-07 17:21 | 53.06874 | -29.53722 | 36121 ft | 462 kts | 261° |
| 2026-05-07 17:22 | 53.05386 | -29.64115 | 36129 ft | 462 kts | 260° |
| 2026-05-07 17:22 | 53.03875 | -29.74501 | 36122 ft | 462 kts | 261° |
| 2026-05-07 17:23 | 53.02385 | -29.84887 | 36130 ft | 462 kts | 261° |
| 2026-05-07 17:23 | 53.00903 | -29.95264 | 36125 ft | 462 kts | 261° |
| 2026-05-07 17:24 | 52.99412 | -30.05631 | 36124 ft | 462 kts | 261° |
| 2026-05-07 17:24 | 52.97959 | -30.15977 | 36127 ft | 459 kts | 263° |
| 2026-05-07 17:25 | 52.96788 | -30.26401 | 36131 ft | 458 kts | 264° |
| 2026-05-07 17:25 | 52.95716 | -30.36761 | 36147 ft | 458 kts | 264° |
| 2026-05-07 17:26 | 52.94627 | -30.47169 | 36148 ft | 458 kts | 264° |
| 2026-05-07 17:26 | 52.93518 | -30.57555 | 36145 ft | 457 kts | 264° |
| 2026-05-07 17:27 | 52.92395 | -30.67935 | 36146 ft | 458 kts | 264° |
| 2026-05-07 17:27 | 52.91264 | -30.78322 | 36147 ft | 458 kts | 264° |
| 2026-05-07 17:28 | 52.90122 | -30.88691 | 36146 ft | 457 kts | 264° |
| 2026-05-07 17:28 | 52.88974 | -30.99038 | 36148 ft | 457 kts | 264° |
| 2026-05-07 17:29 | 52.87818 | -31.09380 | 36148 ft | 457 kts | 264° |
| 2026-05-07 17:29 | 52.86652 | -31.19711 | 36158 ft | 456 kts | 264° |
| 2026-05-07 17:30 | 52.85476 | -31.30043 | 36179 ft | 457 kts | 264° |
| 2026-05-07 17:30 | 52.84494 | -31.38623 | 36185 ft | 456 kts | 264° |
| 2026-05-07 17:31 | 52.83102 | -31.50596 | 36180 ft | 456 kts | 263° |
| 2026-05-07 17:31 | 52.81850 | -31.60886 | 36184 ft | 456 kts | 263° |
| 2026-05-07 17:32 | 52.80812 | -31.69506 | 36182 ft | 456 kts | 263° |
| 2026-05-07 17:32 | 52.79587 | -31.79800 | 36184 ft | 456 kts | 263° |
| 2026-05-07 17:33 | 52.78363 | -31.90078 | 36183 ft | 456 kts | 263° |
| 2026-05-07 17:33 | 52.77129 | -32.00349 | 36184 ft | 456 kts | 263° |
| 2026-05-07 17:34 | 52.75886 | -32.10620 | 36185 ft | 456 kts | 263° |
| 2026-05-07 17:34 | 52.74634 | -32.20896 | 36184 ft | 456 kts | 263° |
| 2026-05-07 17:35 | 52.73381 | -32.31088 | 36183 ft | 456 kts | 263° |
| 2026-05-07 17:35 | 52.72110 | -32.41343 | 36182 ft | 456 kts | 263° |
| 2026-05-07 17:36 | 52.70831 | -32.51592 | 36182 ft | 456 kts | 263° |
| 2026-05-07 17:36 | 52.69543 | -32.61833 | 36180 ft | 456 kts | 263° |
| 2026-05-07 17:37 | 52.68246 | -32.72081 | 36186 ft | 457 kts | 263° |
| 2026-05-07 17:37 | 52.66944 | -32.82276 | 36181 ft | 457 kts | 262° |
| 2026-05-07 17:38 | 52.65578 | -32.92528 | 36181 ft | 457 kts | 262° |
| 2026-05-07 17:38 | 52.64217 | -33.02753 | 36182 ft | 457 kts | 262° |
| 2026-05-07 17:39 | 52.62872 | -33.13002 | 36177 ft | 457 kts | 262° |
| 2026-05-07 17:39 | 52.61528 | -33.23237 | 36174 ft | 457 kts | 262° |
| 2026-05-07 17:40 | 52.60174 | -33.33468 | 36174 ft | 457 kts | 262° |
| 2026-05-07 17:40 | 52.58822 | -33.43620 | 36176 ft | 458 kts | 262° |
| 2026-05-07 17:41 | 52.57449 | -33.53859 | 36173 ft | 458 kts | 262° |
| 2026-05-07 17:41 | 52.56067 | -33.64078 | 36175 ft | 458 kts | 262° |
| 2026-05-07 17:42 | 52.54675 | -33.74301 | 36174 ft | 458 kts | 262° |
| 2026-05-07 17:42 | 52.53279 | -33.84522 | 36175 ft | 459 kts | 262° |
| 2026-05-07 17:43 | 52.51867 | -33.94738 | 36173 ft | 459 kts | 261° |
| 2026-05-07 17:43 | 52.50446 | -34.04946 | 36172 ft | 459 kts | 261° |
| 2026-05-07 17:44 | 52.49017 | -34.15154 | 36176 ft | 459 kts | 261° |
| 2026-05-07 17:44 | 52.47535 | -34.25353 | 36174 ft | 460 kts | 261° |
| 2026-05-07 17:45 | 52.46050 | -34.35555 | 36175 ft | 459 kts | 261° |
| 2026-05-07 17:45 | 52.44586 | -34.45734 | 36174 ft | 459 kts | 261° |
| 2026-05-07 17:46 | 52.43125 | -34.55917 | 36166 ft | 458 kts | 261° |
| 2026-05-07 17:46 | 52.41657 | -34.66071 | 36165 ft | 458 kts | 261° |
| 2026-05-07 17:47 | 52.40179 | -34.76208 | 36166 ft | 458 kts | 261° |
| 2026-05-07 17:47 | 52.38691 | -34.86347 | 36165 ft | 458 kts | 261° |
| 2026-05-07 17:48 | 52.37199 | -34.96465 | 36165 ft | 457 kts | 261° |
| 2026-05-07 17:48 | 52.35701 | -35.06550 | 36165 ft | 457 kts | 261° |
| 2026-05-07 17:49 | 52.34189 | -35.16660 | 36166 ft | 457 kts | 261° |
| 2026-05-07 17:49 | 52.32672 | -35.26744 | 36165 ft | 456 kts | 260° |
| 2026-05-07 17:50 | 52.31148 | -35.36823 | 36165 ft | 456 kts | 260° |
| 2026-05-07 17:50 | 52.29614 | -35.46876 | 36166 ft | 456 kts | 260° |
| 2026-05-07 17:51 | 52.28044 | -35.56847 | 36175 ft | 457 kts | 260° |
| 2026-05-07 17:51 | 52.26443 | -35.66970 | 36175 ft | 457 kts | 260° |
| 2026-05-07 17:52 | 52.24874 | -35.77002 | 36176 ft | 456 kts | 260° |
| 2026-05-07 17:52 | 52.23305 | -35.87055 | 36176 ft | 457 kts | 260° |
| 2026-05-07 17:53 | 52.21729 | -35.97098 | 36172 ft | 457 kts | 260° |
| 2026-05-07 17:53 | 52.20143 | -36.07135 | 36173 ft | 457 kts | 260° |
| 2026-05-07 17:54 | 52.18556 | -36.17098 | 36172 ft | 457 kts | 259° |
| 2026-05-07 17:54 | 52.16947 | -36.27131 | 36173 ft | 457 kts | 259° |
| 2026-05-07 17:55 | 52.15339 | -36.37135 | 36173 ft | 457 kts | 259° |
| 2026-05-07 17:55 | 52.13719 | -36.47132 | 36167 ft | 456 kts | 259° |
| 2026-05-07 17:56 | 52.12086 | -36.57145 | 36165 ft | 456 kts | 259° |
| 2026-05-07 17:56 | 52.10451 | -36.67130 | 36165 ft | 456 kts | 259° |
| 2026-05-07 17:57 | 52.09085 | -36.75415 | 36165 ft | 456 kts | 259° |
| 2026-05-07 17:57 | 52.07133 | -36.86968 | 36165 ft | 456 kts | 258° |
| 2026-05-07 17:58 | 52.05426 | -36.96962 | 36164 ft | 456 kts | 259° |
| 2026-05-07 17:58 | 52.03758 | -37.06821 | 36163 ft | 455 kts | 259° |
| 2026-05-07 17:59 | 52.02087 | -37.16714 | 36164 ft | 455 kts | 259° |
| 2026-05-07 17:59 | 52.00406 | -37.26637 | 36166 ft | 455 kts | 259° |
| 2026-05-07 18:00 | 51.98715 | -37.36536 | 36157 ft | 455 kts | 258° |
| 2026-05-07 18:00 | 51.97013 | -37.46447 | 36156 ft | 456 kts | 258° |
| 2026-05-07 18:01 | 51.95298 | -37.56366 | 36155 ft | 456 kts | 258° |
| 2026-05-07 18:01 | 51.93582 | -37.66267 | 36156 ft | 456 kts | 258° |
| 2026-05-07 18:02 | 51.90989 | -37.81098 | 36157 ft | 456 kts | 258° |
| 2026-05-07 18:03 | 51.89249 | -37.90973 | 36156 ft | 455 kts | 258° |
| 2026-05-07 18:03 | 51.87508 | -38.00814 | 36157 ft | 455 kts | 258° |
| 2026-05-07 18:04 | 51.85762 | -38.10595 | 36155 ft | 455 kts | 258° |
| 2026-05-07 18:04 | 51.83956 | -38.20405 | 36155 ft | 456 kts | 257° |
| 2026-05-07 18:05 | 51.82156 | -38.30239 | 36155 ft | 456 kts | 257° |
| 2026-05-07 18:05 | 51.80373 | -38.40066 | 36154 ft | 456 kts | 258° |
| 2026-05-07 18:06 | 51.78586 | -38.49900 | 36155 ft | 456 kts | 257° |
| 2026-05-07 18:06 | 51.76786 | -38.59743 | 36155 ft | 457 kts | 257° |
| 2026-05-07 18:07 | 51.74978 | -38.69572 | 36156 ft | 457 kts | 257° |
| 2026-05-07 18:07 | 51.73160 | -38.79406 | 36155 ft | 457 kts | 257° |
| 2026-05-07 18:08 | 51.71334 | -38.89234 | 36156 ft | 457 kts | 257° |
| 2026-05-07 18:08 | 51.69510 | -38.98995 | 36155 ft | 457 kts | 257° |
| 2026-05-07 18:09 | 51.67670 | -39.08790 | 36156 ft | 456 kts | 257° |
| 2026-05-07 18:09 | 51.65825 | -39.18573 | 36156 ft | 456 kts | 256° |
| 2026-05-07 18:10 | 51.63970 | -39.28341 | 36157 ft | 455 kts | 256° |
| 2026-05-07 18:10 | 51.62110 | -39.38073 | 36155 ft | 455 kts | 256° |
| 2026-05-07 18:11 | 51.60524 | -39.46143 | 36156 ft | 455 kts | 256° |
| 2026-05-07 18:11 | 51.58619 | -39.55843 | 36156 ft | 455 kts | 256° |
| 2026-05-07 18:12 | 51.56729 | -39.65556 | 36156 ft | 455 kts | 256° |
| 2026-05-07 18:12 | 51.54844 | -39.75249 | 36155 ft | 454 kts | 256° |
| 2026-05-07 18:13 | 51.52950 | -39.84931 | 36156 ft | 454 kts | 256° |
| 2026-05-07 18:13 | 51.51046 | -39.94616 | 36157 ft | 454 kts | 256° |
| 2026-05-07 18:14 | 51.49448 | -40.04321 | 36157 ft | 452 kts | 262° |
| 2026-05-07 18:14 | 51.48392 | -40.14258 | 36155 ft | 451 kts | 264° |
| 2026-05-07 18:15 | 51.47416 | -40.24196 | 36155 ft | 451 kts | 264° |
| 2026-05-07 18:15 | 51.46402 | -40.34127 | 36153 ft | 451 kts | 263° |
| 2026-05-07 18:16 | 51.45355 | -40.44064 | 36157 ft | 451 kts | 263° |
| 2026-05-07 18:16 | 51.44296 | -40.53984 | 36155 ft | 452 kts | 263° |
| 2026-05-07 18:17 | 51.43227 | -40.63914 | 36155 ft | 452 kts | 263° |
| 2026-05-07 18:17 | 51.42158 | -40.73785 | 36156 ft | 453 kts | 263° |
| 2026-05-07 18:18 | 51.41071 | -40.83724 | 36156 ft | 453 kts | 262° |
| 2026-05-07 18:18 | 51.39975 | -40.93654 | 36155 ft | 453 kts | 262° |
| 2026-05-07 18:19 | 51.38873 | -41.03569 | 36156 ft | 453 kts | 262° |
| 2026-05-07 18:19 | 51.37759 | -41.13494 | 36156 ft | 453 kts | 262° |
| 2026-05-07 18:20 | 51.36640 | -41.23425 | 36156 ft | 453 kts | 262° |
| 2026-05-07 18:20 | 51.35496 | -41.33337 | 36155 ft | 453 kts | 262° |
| 2026-05-07 18:21 | 51.34310 | -41.43234 | 36157 ft | 453 kts | 262° |
| 2026-05-07 18:21 | 51.33144 | -41.53133 | 36156 ft | 453 kts | 262° |
| 2026-05-07 18:22 | 51.31988 | -41.63026 | 36155 ft | 453 kts | 262° |
| 2026-05-07 18:22 | 51.30834 | -41.72864 | 36156 ft | 453 kts | 262° |
| 2026-05-07 18:23 | 51.29664 | -41.82763 | 36155 ft | 453 kts | 262° |
| 2026-05-07 18:23 | 51.28484 | -41.92659 | 36155 ft | 453 kts | 261° |
| 2026-05-07 18:24 | 51.27297 | -42.02535 | 36158 ft | 453 kts | 261° |
| 2026-05-07 18:24 | 51.26103 | -42.12408 | 36158 ft | 453 kts | 261° |
| 2026-05-07 18:25 | 51.24897 | -42.22281 | 36155 ft | 453 kts | 261° |
| 2026-05-07 18:25 | 51.23682 | -42.32155 | 36157 ft | 453 kts | 261° |
| 2026-05-07 18:26 | 51.22460 | -42.42038 | 36157 ft | 454 kts | 261° |
| 2026-05-07 18:26 | 51.21229 | -42.51919 | 36155 ft | 454 kts | 261° |
| 2026-05-07 18:27 | 51.19990 | -42.61722 | 36156 ft | 454 kts | 260° |
| 2026-05-07 18:27 | 51.18693 | -42.71581 | 36156 ft | 454 kts | 260° |
| 2026-05-07 18:28 | 51.17411 | -42.81433 | 36156 ft | 454 kts | 260° |
| 2026-05-07 18:28 | 51.16142 | -42.91281 | 36155 ft | 453 kts | 260° |
| 2026-05-07 18:29 | 51.14872 | -43.01127 | 36157 ft | 453 kts | 260° |
| 2026-05-07 18:29 | 51.13593 | -43.10956 | 36155 ft | 453 kts | 260° |
| 2026-05-07 18:30 | 51.12303 | -43.20794 | 36153 ft | 453 kts | 260° |
| 2026-05-07 18:30 | 51.11010 | -43.30588 | 36156 ft | 452 kts | 260° |
| 2026-05-07 18:31 | 51.09706 | -43.40406 | 36156 ft | 454 kts | 259° |
| 2026-05-07 18:31 | 51.08392 | -43.50221 | 36156 ft | 453 kts | 259° |
| 2026-05-07 18:32 | 51.07080 | -43.59970 | 36155 ft | 453 kts | 259° |
| 2026-05-07 18:32 | 51.05750 | -43.69769 | 36147 ft | 453 kts | 259° |
| 2026-05-07 18:33 | 51.04413 | -43.79574 | 36148 ft | 454 kts | 259° |
| 2026-05-07 18:33 | 51.03062 | -43.89367 | 36145 ft | 454 kts | 259° |
| 2026-05-07 18:34 | 51.01662 | -43.99131 | 36145 ft | 454 kts | 259° |
| 2026-05-07 18:34 | 51.00270 | -44.08904 | 36148 ft | 454 kts | 258° |
| 2026-05-07 18:35 | 50.98891 | -44.18683 | 36148 ft | 453 kts | 259° |
| 2026-05-07 18:35 | 50.97514 | -44.28445 | 36146 ft | 453 kts | 258° |
| 2026-05-07 18:36 | 50.96138 | -44.38138 | 36147 ft | 453 kts | 258° |
| 2026-05-07 18:36 | 50.94742 | -44.47895 | 36147 ft | 454 kts | 258° |
| 2026-05-07 18:37 | 50.93337 | -44.57657 | 36145 ft | 453 kts | 258° |
| 2026-05-07 18:37 | 50.91923 | -44.67407 | 36148 ft | 454 kts | 258° |
| 2026-05-07 18:38 | 50.90501 | -44.77148 | 36147 ft | 453 kts | 258° |
| 2026-05-07 18:38 | 50.89075 | -44.86877 | 36147 ft | 453 kts | 258° |
| 2026-05-07 18:39 | 50.87643 | -44.96612 | 36146 ft | 453 kts | 258° |
| 2026-05-07 18:39 | 50.86198 | -45.06329 | 36145 ft | 453 kts | 258° |
| 2026-05-07 18:40 | 50.84744 | -45.16043 | 36147 ft | 454 kts | 258° |
| 2026-05-07 18:40 | 50.83244 | -45.25755 | 36146 ft | 454 kts | 257° |
| 2026-05-07 18:41 | 50.81743 | -45.35442 | 36148 ft | 454 kts | 257° |
| 2026-05-07 18:41 | 50.80255 | -45.45153 | 36147 ft | 454 kts | 257° |
| 2026-05-07 18:42 | 50.78769 | -45.54854 | 36089 ft | 454 kts | 257° |
| 2026-05-07 18:42 | 50.77284 | -45.64490 | 36036 ft | 454 kts | 257° |
| 2026-05-07 18:43 | 50.75772 | -45.74234 | 36036 ft | 454 kts | 257° |
| 2026-05-07 18:43 | 50.74260 | -45.83922 | 36036 ft | 455 kts | 257° |
| 2026-05-07 18:44 | 50.72749 | -45.93550 | 36036 ft | 455 kts | 257° |
| 2026-05-07 18:44 | 50.71219 | -46.03250 | 36037 ft | 455 kts | 257° |
| 2026-05-07 18:45 | 50.69682 | -46.12933 | 36035 ft | 454 kts | 256° |
| 2026-05-07 18:45 | 50.68140 | -46.22592 | 36035 ft | 454 kts | 256° |
| 2026-05-07 18:46 | 50.66589 | -46.32255 | 36036 ft | 454 kts | 256° |
| 2026-05-07 18:46 | 50.65031 | -46.41900 | 36037 ft | 454 kts | 256° |
| 2026-05-07 18:47 | 50.63432 | -46.51532 | 36036 ft | 454 kts | 256° |
| 2026-05-07 18:47 | 50.61821 | -46.61138 | 36037 ft | 453 kts | 256° |
| 2026-05-07 18:48 | 50.60230 | -46.70740 | 36050 ft | 453 kts | 256° |
| 2026-05-07 18:48 | 50.58640 | -46.80340 | 36036 ft | 453 kts | 256° |
| 2026-05-07 18:49 | 50.57049 | -46.89920 | 36036 ft | 453 kts | 256° |
| 2026-05-07 18:49 | 50.55459 | -46.99437 | 36036 ft | 452 kts | 256° |
| 2026-05-07 18:50 | 50.53849 | -47.09007 | 36036 ft | 452 kts | 255° |
| 2026-05-07 18:50 | 50.52234 | -47.18555 | 36035 ft | 452 kts | 255° |
| 2026-05-07 18:51 | 50.50612 | -47.28098 | 36036 ft | 452 kts | 255° |
| 2026-05-07 18:51 | 50.48982 | -47.37632 | 36036 ft | 452 kts | 255° |
| 2026-05-07 18:52 | 50.47347 | -47.47157 | 36037 ft | 452 kts | 255° |
| 2026-05-07 18:52 | 50.45700 | -47.56688 | 36034 ft | 452 kts | 255° |
| 2026-05-07 18:53 | 50.44047 | -47.66193 | 36034 ft | 452 kts | 255° |
| 2026-05-07 18:53 | 50.42364 | -47.75710 | 36035 ft | 452 kts | 254° |
| 2026-05-07 18:54 | 50.40937 | -47.83601 | 36035 ft | 452 kts | 254° |
| 2026-05-07 18:54 | 50.39241 | -47.93084 | 36036 ft | 452 kts | 255° |
| 2026-05-07 18:55 | 50.37554 | -48.02592 | 36036 ft | 452 kts | 255° |
| 2026-05-07 18:55 | 50.35861 | -48.12094 | 36036 ft | 452 kts | 254° |
| 2026-05-07 18:56 | 50.34162 | -48.21577 | 36036 ft | 452 kts | 254° |
| 2026-05-07 18:56 | 50.32455 | -48.31053 | 36035 ft | 452 kts | 254° |
| 2026-05-07 18:57 | 50.30742 | -48.40508 | 36037 ft | 451 kts | 254° |
| 2026-05-07 18:57 | 50.29022 | -48.49946 | 36035 ft | 451 kts | 254° |
| 2026-05-07 18:58 | 50.27311 | -48.59301 | 36036 ft | 450 kts | 254° |
| 2026-05-07 18:58 | 50.25570 | -48.68765 | 36037 ft | 450 kts | 253° |
| 2026-05-07 18:59 | 50.23845 | -48.78092 | 36036 ft | 449 kts | 253° |
| 2026-05-07 18:59 | 50.22105 | -48.87456 | 36035 ft | 448 kts | 253° |
| 2026-05-07 19:00 | 50.20358 | -48.96793 | 36036 ft | 448 kts | 253° |
| 2026-05-07 19:00 | 50.18565 | -49.06098 | 36036 ft | 447 kts | 252° |
| 2026-05-07 19:01 | 50.16785 | -49.15375 | 36029 ft | 446 kts | 253° |
| 2026-05-07 19:01 | 50.15028 | -49.24592 | 36027 ft | 446 kts | 253° |
| 2026-05-07 19:02 | 50.13266 | -49.33848 | 36026 ft | 445 kts | 252° |
| 2026-05-07 19:02 | 50.11497 | -49.43099 | 36035 ft | 445 kts | 252° |
| 2026-05-07 19:03 | 50.09722 | -49.52336 | 36036 ft | 444 kts | 252° |
| 2026-05-07 19:03 | 50.07939 | -49.61550 | 36037 ft | 444 kts | 252° |
| 2026-05-07 19:04 | 50.06150 | -49.70743 | 36035 ft | 444 kts | 252° |
| 2026-05-07 19:04 | 50.04355 | -49.79938 | 36035 ft | 444 kts | 252° |
| 2026-05-07 19:05 | 50.02455 | -49.89078 | 36037 ft | 444 kts | 249° |
| 2026-05-07 19:05 | 50.00313 | -49.98094 | 36034 ft | 444 kts | 249° |
| 2026-05-07 19:06 | 49.98160 | -50.07027 | 36036 ft | 444 kts | 249° |
| 2026-05-07 19:06 | 49.94932 | -50.20522 | 36037 ft | 444 kts | 249° |
| 2026-05-07 19:07 | 49.92777 | -50.29503 | 36037 ft | 444 kts | 249° |
| 2026-05-07 19:07 | 49.90617 | -50.38478 | 36035 ft | 444 kts | 249° |
| 2026-05-07 19:08 | 49.88446 | -50.47461 | 36035 ft | 444 kts | 249° |
| 2026-05-07 19:08 | 49.86273 | -50.56419 | 36035 ft | 444 kts | 249° |
| 2026-05-07 19:09 | 49.84090 | -50.65390 | 36037 ft | 445 kts | 248° |
| 2026-05-07 19:09 | 49.81896 | -50.74357 | 36034 ft | 445 kts | 248° |
| 2026-05-07 19:10 | 49.79694 | -50.83312 | 36036 ft | 445 kts | 248° |
| 2026-05-07 19:10 | 49.77487 | -50.92261 | 36035 ft | 445 kts | 248° |
| 2026-05-07 19:11 | 49.75272 | -51.01224 | 36182 ft | 447 kts | 248° |
| 2026-05-07 19:11 | 49.74170 | -51.05659 | 36461 ft | 447 kts | 248° |
| 2026-05-07 19:11 | 49.73037 | -51.10131 | 36766 ft | 446 kts | 248° |
| 2026-05-07 19:12 | 49.71905 | -51.14570 | 37138 ft | 442 kts | 248° |
| 2026-05-07 19:12 | 49.70786 | -51.18969 | 37511 ft | 438 kts | 248° |
| 2026-05-07 19:12 | 49.69684 | -51.23332 | 37884 ft | 435 kts | 248° |
| 2026-05-07 19:12 | 49.68586 | -51.27693 | 38014 ft | 437 kts | 248° |
| 2026-05-07 19:13 | 49.66380 | -51.36461 | 38042 ft | 436 kts | 248° |
| 2026-05-07 19:13 | 49.64076 | -51.45065 | 38045 ft | 433 kts | 245° |
| 2026-05-07 19:14 | 49.61624 | -51.53616 | 38045 ft | 433 kts | 245° |
| 2026-05-07 19:14 | 49.59191 | -51.62047 | 38045 ft | 433 kts | 245° |
| 2026-05-07 19:15 | 49.56751 | -51.70518 | 38045 ft | 432 kts | 245° |
| 2026-05-07 19:15 | 49.54314 | -51.78977 | 38046 ft | 432 kts | 245° |
| 2026-05-07 19:16 | 49.51866 | -51.87437 | 38054 ft | 432 kts | 244° |
| 2026-05-07 19:16 | 49.49416 | -51.95884 | 38055 ft | 432 kts | 244° |
| 2026-05-07 19:17 | 49.46960 | -52.04323 | 38054 ft | 432 kts | 244° |
| 2026-05-07 19:17 | 49.44494 | -52.12758 | 38054 ft | 432 kts | 244° |
| 2026-05-07 19:18 | 49.42023 | -52.21176 | 38054 ft | 432 kts | 244° |
| 2026-05-07 19:18 | 49.39552 | -52.29578 | 38054 ft | 432 kts | 244° |
| 2026-05-07 19:19 | 49.37088 | -52.37926 | 38048 ft | 432 kts | 244° |
| 2026-05-07 19:19 | 49.34596 | -52.46333 | 38037 ft | 433 kts | 244° |
| 2026-05-07 19:20 | 49.32101 | -52.54720 | 38036 ft | 433 kts | 244° |
| 2026-05-07 19:20 | 49.29566 | -52.63081 | 38036 ft | 432 kts | 243° |
| 2026-05-07 19:21 | 49.27032 | -52.71439 | 38036 ft | 433 kts | 244° |
| 2026-05-07 19:21 | 49.24500 | -52.79832 | 38008 ft | 433 kts | 244° |
| 2026-05-07 19:22 | 49.21976 | -52.88201 | 37999 ft | 433 kts | 244° |
| 2026-05-07 19:22 | 49.19446 | -52.96568 | 37999 ft | 433 kts | 244° |
| 2026-05-07 19:23 | 49.16908 | -53.04925 | 37999 ft | 433 kts | 243° |
| 2026-05-07 19:23 | 49.14365 | -53.13278 | 37999 ft | 434 kts | 243° |
| 2026-05-07 19:24 | 49.11815 | -53.21623 | 37996 ft | 433 kts | 243° |
| 2026-05-07 19:24 | 49.09261 | -53.29953 | 37989 ft | 433 kts | 243° |
| 2026-05-07 19:25 | 49.06702 | -53.38264 | 37990 ft | 433 kts | 243° |
| 2026-05-07 19:25 | 49.04136 | -53.46574 | 37990 ft | 433 kts | 243° |
| 2026-05-07 19:26 | 49.01579 | -53.54827 | 37990 ft | 433 kts | 243° |
| 2026-05-07 19:26 | 48.99000 | -53.63125 | 37988 ft | 433 kts | 243° |
| 2026-05-07 19:27 | 48.96417 | -53.71407 | 37981 ft | 433 kts | 243° |
| 2026-05-07 19:27 | 48.93786 | -53.79667 | 37981 ft | 434 kts | 242° |
| 2026-05-07 19:28 | 48.91164 | -53.87930 | 37981 ft | 434 kts | 243° |
| 2026-05-07 19:28 | 48.88555 | -53.96195 | 37980 ft | 434 kts | 243° |
| 2026-05-07 19:29 | 48.85941 | -54.04466 | 37981 ft | 434 kts | 243° |
| 2026-05-07 19:29 | 48.83322 | -54.12719 | 37963 ft | 433 kts | 242° |
| 2026-05-07 19:30 | 48.80698 | -54.20968 | 37963 ft | 434 kts | 242° |
| 2026-05-07 19:30 | 48.78088 | -54.29149 | 37976 ft | 434 kts | 242° |
| 2026-05-07 19:31 | 48.75450 | -54.37386 | 37979 ft | 434 kts | 242° |
| 2026-05-07 19:31 | 48.72811 | -54.45605 | 37980 ft | 434 kts | 242° |
| 2026-05-07 19:32 | 48.70161 | -54.53825 | 37979 ft | 434 kts | 242° |
| 2026-05-07 19:32 | 48.67506 | -54.62027 | 37977 ft | 434 kts | 242° |
| 2026-05-07 19:33 | 48.64847 | -54.70224 | 37964 ft | 434 kts | 242° |
| 2026-05-07 19:33 | 48.62186 | -54.78397 | 37961 ft | 434 kts | 242° |
| 2026-05-07 19:34 | 48.59502 | -54.86578 | 37966 ft | 433 kts | 242° |
| 2026-05-07 19:34 | 48.56812 | -54.94659 | 37963 ft | 434 kts | 242° |
| 2026-05-07 19:35 | 48.54113 | -55.02811 | 37963 ft | 433 kts | 242° |
| 2026-05-07 19:35 | 48.51861 | -55.09631 | 37961 ft | 433 kts | 242° |
| 2026-05-07 19:36 | 48.49171 | -55.17763 | 37957 ft | 433 kts | 242° |
| 2026-05-07 19:36 | 48.46479 | -55.25882 | 37962 ft | 433 kts | 242° |
| 2026-05-07 19:37 | 48.43777 | -55.34002 | 37958 ft | 434 kts | 242° |
| 2026-05-07 19:37 | 48.41067 | -55.42120 | 37954 ft | 434 kts | 242° |
| 2026-05-07 19:38 | 48.38371 | -55.50171 | 37948 ft | 433 kts | 242° |
| 2026-05-07 19:38 | 48.35648 | -55.58278 | 37944 ft | 434 kts | 242° |
| 2026-05-07 19:39 | 48.32917 | -55.66383 | 37943 ft | 434 kts | 242° |
| 2026-05-07 19:39 | 48.30182 | -55.74470 | 37935 ft | 434 kts | 242° |
| 2026-05-07 19:40 | 48.27444 | -55.82543 | 37934 ft | 434 kts | 242° |
| 2026-05-07 19:40 | 48.24700 | -55.90610 | 37923 ft | 434 kts | 242° |
| 2026-05-07 19:41 | 48.21934 | -55.98676 | 37925 ft | 434 kts | 241° |
| 2026-05-07 19:41 | 48.19145 | -56.06705 | 37925 ft | 434 kts | 242° |
| 2026-05-07 19:42 | 48.16381 | -56.14697 | 37918 ft | 434 kts | 242° |
| 2026-05-07 19:42 | 48.13609 | -56.22729 | 37914 ft | 434 kts | 242° |
| 2026-05-07 19:43 | 48.10830 | -56.30772 | 37891 ft | 434 kts | 242° |
| 2026-05-07 19:43 | 48.08051 | -56.38785 | 37889 ft | 434 kts | 242° |
| 2026-05-07 19:44 | 48.05270 | -56.46782 | 37889 ft | 434 kts | 241° |
| 2026-05-07 19:44 | 48.02485 | -56.54770 | 37885 ft | 433 kts | 241° |
| 2026-05-07 19:45 | 47.99693 | -56.62750 | 37879 ft | 432 kts | 241° |
| 2026-05-07 19:45 | 47.96906 | -56.70690 | 37881 ft | 432 kts | 242° |
| 2026-05-07 19:46 | 47.94112 | -56.78636 | 37877 ft | 432 kts | 242° |
| 2026-05-07 19:46 | 47.91309 | -56.86568 | 37879 ft | 432 kts | 242° |
| 2026-05-07 19:47 | 47.88507 | -56.94479 | 37885 ft | 431 kts | 242° |
| 2026-05-07 19:47 | 47.85702 | -57.02375 | 37885 ft | 431 kts | 242° |
| 2026-05-07 19:48 | 47.82879 | -57.10240 | 37877 ft | 431 kts | 242° |
| 2026-05-07 19:48 | 47.80034 | -57.18092 | 37883 ft | 430 kts | 242° |
| 2026-05-07 19:49 | 47.77210 | -57.25931 | 37873 ft | 430 kts | 242° |
| 2026-05-07 19:49 | 47.74392 | -57.33764 | 37882 ft | 429 kts | 242° |
| 2026-05-07 19:50 | 47.71571 | -57.41589 | 37870 ft | 430 kts | 242° |
| 2026-05-07 19:50 | 47.68745 | -57.49406 | 37845 ft | 430 kts | 242° |
| 2026-05-07 19:51 | 47.65916 | -57.57200 | 37841 ft | 429 kts | 242° |
| 2026-05-07 19:51 | 47.63100 | -57.64940 | 37841 ft | 429 kts | 242° |
| 2026-05-07 19:52 | 47.60262 | -57.72721 | 37832 ft | 429 kts | 242° |
| 2026-05-07 19:52 | 47.57416 | -57.80499 | 37832 ft | 429 kts | 242° |
| 2026-05-07 19:53 | 47.54570 | -57.88259 | 37832 ft | 429 kts | 241° |
| 2026-05-07 19:53 | 47.51720 | -57.95994 | 37831 ft | 428 kts | 241° |
| 2026-05-07 19:54 | 47.48864 | -58.03731 | 37825 ft | 429 kts | 241° |
| 2026-05-07 19:54 | 47.46005 | -58.11450 | 37825 ft | 428 kts | 241° |
| 2026-05-07 19:55 | 47.43126 | -58.19130 | 37811 ft | 427 kts | 241° |
| 2026-05-07 19:55 | 47.40234 | -58.26798 | 37803 ft | 426 kts | 241° |
| 2026-05-07 19:56 | 47.37355 | -58.34448 | 37800 ft | 426 kts | 241° |
| 2026-05-07 19:56 | 47.34481 | -58.42111 | 37796 ft | 426 kts | 241° |
| 2026-05-07 19:57 | 47.31621 | -58.49741 | 37794 ft | 426 kts | 241° |
| 2026-05-07 19:57 | 47.28772 | -58.57316 | 37796 ft | 425 kts | 241° |
| 2026-05-07 19:58 | 47.25878 | -58.64982 | 37786 ft | 425 kts | 241° |
| 2026-05-07 19:58 | 47.23017 | -58.72534 | 37785 ft | 425 kts | 241° |
| 2026-05-07 19:59 | 47.20134 | -58.80122 | 37777 ft | 424 kts | 241° |
| 2026-05-07 19:59 | 47.17250 | -58.87691 | 37776 ft | 423 kts | 241° |
| 2026-05-07 20:00 | 47.14368 | -58.95239 | 37766 ft | 423 kts | 241° |
| 2026-05-07 20:00 | 47.11484 | -59.02765 | 37767 ft | 423 kts | 241° |
| 2026-05-07 20:01 | 47.08596 | -59.10276 | 37762 ft | 422 kts | 241° |
| 2026-05-07 20:01 | 47.05706 | -59.17774 | 37758 ft | 422 kts | 241° |
| 2026-05-07 20:02 | 47.02794 | -59.25253 | 37758 ft | 422 kts | 240° |
| 2026-05-07 20:02 | 46.99890 | -59.32658 | 37753 ft | 421 kts | 240° |
| 2026-05-07 20:03 | 46.96980 | -59.40109 | 37751 ft | 421 kts | 240° |
| 2026-05-07 20:03 | 46.94082 | -59.47537 | 37748 ft | 420 kts | 240° |
| 2026-05-07 20:04 | 46.91182 | -59.54963 | 37747 ft | 420 kts | 240° |
| 2026-05-07 20:04 | 46.88279 | -59.62376 | 37750 ft | 420 kts | 240° |
| 2026-05-07 20:05 | 46.85373 | -59.69767 | 37748 ft | 419 kts | 240° |
| 2026-05-07 20:05 | 46.82470 | -59.77142 | 37745 ft | 418 kts | 240° |
| 2026-05-07 20:06 | 46.79576 | -59.84471 | 37725 ft | 418 kts | 240° |
| 2026-05-07 20:06 | 46.76645 | -59.91863 | 37733 ft | 418 kts | 240° |
| 2026-05-07 20:07 | 46.73754 | -59.99146 | 37729 ft | 417 kts | 240° |
| 2026-05-07 20:07 | 46.70845 | -60.06463 | 37739 ft | 416 kts | 240° |
| 2026-05-07 20:08 | 46.67933 | -60.13744 | 37725 ft | 415 kts | 240° |
| 2026-05-07 20:08 | 46.65027 | -60.21008 | 37729 ft | 415 kts | 240° |
| 2026-05-07 20:09 | 46.62115 | -60.28253 | 37729 ft | 415 kts | 240° |
| 2026-05-07 20:10 | 46.57698 | -60.39083 | 37713 ft | 414 kts | 240° |
| 2026-05-07 20:10 | 46.54769 | -60.46303 | 37712 ft | 415 kts | 240° |
| 2026-05-07 20:11 | 46.51838 | -60.53534 | 37731 ft | 415 kts | 240° |
| 2026-05-07 20:11 | 46.48903 | -60.60748 | 37728 ft | 414 kts | 240° |
| 2026-05-07 20:12 | 46.45972 | -60.67947 | 37719 ft | 415 kts | 240° |
| 2026-05-07 20:12 | 46.43033 | -60.75157 | 37712 ft | 414 kts | 240° |
| 2026-05-07 20:13 | 46.40087 | -60.82357 | 37709 ft | 415 kts | 239° |
| 2026-05-07 20:13 | 46.37135 | -60.89542 | 37712 ft | 415 kts | 240° |
| 2026-05-07 20:14 | 46.34186 | -60.96711 | 37703 ft | 415 kts | 239° |
| 2026-05-07 20:14 | 46.31725 | -61.02666 | 37702 ft | 414 kts | 240° |
| 2026-05-07 20:15 | 46.28766 | -61.09813 | 37704 ft | 414 kts | 240° |
| 2026-05-07 20:15 | 46.25324 | -61.18114 | 37695 ft | 414 kts | 239° |
| 2026-05-07 20:16 | 46.22842 | -61.24087 | 37694 ft | 414 kts | 239° |
| 2026-05-07 20:16 | 46.19874 | -61.31201 | 37692 ft | 413 kts | 239° |
| 2026-05-07 20:17 | 46.16880 | -61.38279 | 37693 ft | 413 kts | 239° |
| 2026-05-07 20:17 | 46.13914 | -61.45305 | 37693 ft | 413 kts | 239° |
| 2026-05-07 20:18 | 46.10937 | -61.52375 | 37691 ft | 412 kts | 239° |
| 2026-05-07 20:18 | 46.07966 | -61.59433 | 37684 ft | 412 kts | 239° |
| 2026-05-07 20:19 | 46.04994 | -61.66472 | 37683 ft | 411 kts | 239° |
| 2026-05-07 20:19 | 46.02013 | -61.73520 | 37683 ft | 411 kts | 239° |
| 2026-05-07 20:20 | 45.99030 | -61.80550 | 37683 ft | 411 kts | 239° |
| 2026-05-07 20:20 | 45.96064 | -61.87524 | 37674 ft | 411 kts | 239° |
| 2026-05-07 20:21 | 45.93073 | -61.94529 | 37674 ft | 411 kts | 239° |
| 2026-05-07 20:21 | 45.90084 | -62.01524 | 37673 ft | 411 kts | 239° |
| 2026-05-07 20:22 | 45.87095 | -62.08504 | 37673 ft | 411 kts | 239° |
| 2026-05-07 20:22 | 45.84093 | -62.15489 | 37674 ft | 411 kts | 239° |
| 2026-05-07 20:23 | 45.81095 | -62.22452 | 37673 ft | 411 kts | 239° |
| 2026-05-07 20:23 | 45.78082 | -62.29430 | 37674 ft | 411 kts | 239° |
| 2026-05-07 20:24 | 45.75051 | -62.36378 | 37672 ft | 411 kts | 239° |
| 2026-05-07 20:24 | 45.72011 | -62.43301 | 37673 ft | 410 kts | 239° |
| 2026-05-07 20:25 | 45.69003 | -62.50190 | 37674 ft | 410 kts | 239° |
| 2026-05-07 20:25 | 45.65982 | -62.57113 | 37674 ft | 410 kts | 239° |
| 2026-05-07 20:26 | 45.62963 | -62.64022 | 37673 ft | 410 kts | 239° |
| 2026-05-07 20:26 | 45.59939 | -62.70923 | 37675 ft | 409 kts | 239° |
| 2026-05-07 20:27 | 45.56916 | -62.77805 | 37673 ft | 409 kts | 239° |
| 2026-05-07 20:27 | 45.53885 | -62.84686 | 37680 ft | 409 kts | 239° |
| 2026-05-07 20:28 | 45.50856 | -62.91546 | 37682 ft | 409 kts | 238° |
| 2026-05-07 20:28 | 45.47837 | -62.98367 | 37683 ft | 408 kts | 238° |
| 2026-05-07 20:29 | 45.44797 | -63.05218 | 37680 ft | 408 kts | 238° |
| 2026-05-07 20:29 | 45.41758 | -63.12053 | 37675 ft | 408 kts | 238° |
| 2026-05-07 20:30 | 45.38715 | -63.18881 | 37674 ft | 408 kts | 238° |
| 2026-05-07 20:30 | 45.35665 | -63.25706 | 37673 ft | 408 kts | 238° |
| 2026-05-07 20:31 | 45.32613 | -63.32513 | 37674 ft | 408 kts | 238° |
| 2026-05-07 20:31 | 45.29532 | -63.39292 | 37674 ft | 408 kts | 238° |
| 2026-05-07 20:32 | 45.26458 | -63.46064 | 37674 ft | 408 kts | 238° |
| 2026-05-07 20:32 | 45.23394 | -63.52835 | 37681 ft | 407 kts | 238° |
| 2026-05-07 20:33 | 45.20332 | -63.59609 | 37684 ft | 407 kts | 238° |
| 2026-05-07 20:33 | 45.17268 | -63.66369 | 37683 ft | 407 kts | 238° |
| 2026-05-07 20:34 | 45.14208 | -63.73108 | 37684 ft | 407 kts | 238° |
| 2026-05-07 20:34 | 45.11142 | -63.79832 | 37683 ft | 407 kts | 238° |
| 2026-05-07 20:35 | 45.08072 | -63.86556 | 37684 ft | 406 kts | 238° |
| 2026-05-07 20:35 | 45.05004 | -63.93268 | 37683 ft | 406 kts | 238° |
| 2026-05-07 20:36 | 45.01929 | -63.99970 | 37683 ft | 406 kts | 238° |
| 2026-05-07 20:36 | 44.98854 | -64.06653 | 37683 ft | 406 kts | 238° |
| 2026-05-07 20:37 | 44.95796 | -64.13287 | 37683 ft | 406 kts | 238° |
| 2026-05-07 20:37 | 44.92695 | -64.19996 | 37683 ft | 405 kts | 238° |
| 2026-05-07 20:38 | 44.89618 | -64.26637 | 37692 ft | 405 kts | 238° |
| 2026-05-07 20:38 | 44.86524 | -64.33278 | 37693 ft | 405 kts | 237° |
| 2026-05-07 20:39 | 44.83431 | -64.39849 | 37693 ft | 405 kts | 237° |
| 2026-05-07 20:39 | 44.80327 | -64.46470 | 37693 ft | 404 kts | 238° |
| 2026-05-07 20:40 | 44.77231 | -64.53086 | 37692 ft | 404 kts | 238° |
| 2026-05-07 20:40 | 44.74141 | -64.59682 | 37693 ft | 404 kts | 238° |
| 2026-05-07 20:41 | 44.71044 | -64.66280 | 37692 ft | 403 kts | 237° |
| 2026-05-07 20:41 | 44.67943 | -64.72869 | 37694 ft | 404 kts | 237° |
| 2026-05-07 20:42 | 44.64839 | -64.79445 | 37691 ft | 404 kts | 237° |
| 2026-05-07 20:42 | 44.61732 | -64.86016 | 37694 ft | 404 kts | 237° |
| 2026-05-07 20:43 | 44.58640 | -64.92545 | 37701 ft | 404 kts | 237° |
| 2026-05-07 20:43 | 44.55520 | -64.99116 | 37693 ft | 404 kts | 237° |
| 2026-05-07 20:44 | 44.52399 | -65.05672 | 37692 ft | 404 kts | 237° |
| 2026-05-07 20:44 | 44.49277 | -65.12212 | 37700 ft | 404 kts | 237° |
| 2026-05-07 20:45 | 44.46152 | -65.18746 | 37702 ft | 404 kts | 237° |
| 2026-05-07 20:45 | 44.43025 | -65.25272 | 37702 ft | 404 kts | 237° |
| 2026-05-07 20:46 | 44.39882 | -65.31777 | 37702 ft | 403 kts | 237° |
| 2026-05-07 20:46 | 44.36724 | -65.38260 | 37707 ft | 403 kts | 237° |
| 2026-05-07 20:47 | 44.33580 | -65.44748 | 37708 ft | 403 kts | 237° |
| 2026-05-07 20:47 | 44.30439 | -65.51228 | 37710 ft | 403 kts | 237° |
| 2026-05-07 20:48 | 44.27304 | -65.57701 | 37726 ft | 402 kts | 237° |
| 2026-05-07 20:48 | 44.24167 | -65.64161 | 37713 ft | 402 kts | 237° |
| 2026-05-07 20:49 | 44.21027 | -65.70608 | 37712 ft | 402 kts | 237° |
| 2026-05-07 20:49 | 44.17883 | -65.77049 | 37726 ft | 401 kts | 237° |
| 2026-05-07 20:50 | 44.14744 | -65.83472 | 37733 ft | 401 kts | 237° |
| 2026-05-07 20:50 | 44.11597 | -65.89890 | 37733 ft | 401 kts | 237° |
| 2026-05-07 20:51 | 44.08446 | -65.96300 | 37728 ft | 401 kts | 237° |
| 2026-05-07 20:51 | 44.05314 | -66.02664 | 37741 ft | 401 kts | 237° |
| 2026-05-07 20:52 | 44.02158 | -66.09056 | 37743 ft | 401 kts | 237° |
| 2026-05-07 20:52 | 43.98994 | -66.15455 | 37741 ft | 402 kts | 237° |
| 2026-05-07 20:53 | 43.95829 | -66.21845 | 37740 ft | 402 kts | 237° |
| 2026-05-07 20:53 | 43.92642 | -66.28209 | 37735 ft | 401 kts | 236° |
| 2026-05-07 20:54 | 43.89451 | -66.34559 | 37738 ft | 402 kts | 236° |
| 2026-05-07 20:54 | 43.86268 | -66.40922 | 37736 ft | 401 kts | 237° |
| 2026-05-07 20:55 | 43.83090 | -66.47272 | 37737 ft | 401 kts | 237° |
| 2026-05-07 20:55 | 43.79926 | -66.53585 | 37738 ft | 401 kts | 237° |
| 2026-05-07 20:56 | 43.76743 | -66.59925 | 37736 ft | 401 kts | 237° |
| 2026-05-07 20:56 | 43.74077 | -66.65227 | 37740 ft | 401 kts | 236° |
| 2026-05-07 20:57 | 43.70371 | -66.72576 | 37738 ft | 401 kts | 236° |
| 2026-05-07 20:57 | 43.67688 | -66.77882 | 37742 ft | 401 kts | 236° |
| 2026-05-07 20:58 | 43.64488 | -66.84201 | 37740 ft | 401 kts | 236° |
| 2026-05-07 20:58 | 43.61307 | -66.90475 | 37740 ft | 401 kts | 237° |
| 2026-05-07 20:59 | 43.58093 | -66.96787 | 37740 ft | 402 kts | 236° |
| 2026-05-07 20:59 | 43.55373 | -67.03474 | 37743 ft | 400 kts | 247° |
| 2026-05-07 21:00 | 43.53363 | -67.10644 | 37736 ft | 401 kts | 249° |
| 2026-05-07 21:00 | 43.51422 | -67.17849 | 37733 ft | 401 kts | 249° |
| 2026-05-07 21:01 | 43.49444 | -67.25041 | 37742 ft | 401 kts | 249° |
| 2026-05-07 21:01 | 43.47443 | -67.32216 | 37734 ft | 401 kts | 248° |
| 2026-05-07 21:02 | 43.45432 | -67.39381 | 37739 ft | 401 kts | 248° |
| 2026-05-07 21:02 | 43.43413 | -67.46531 | 37734 ft | 401 kts | 248° |
| 2026-05-07 21:03 | 43.41394 | -67.53697 | 37743 ft | 402 kts | 248° |
| 2026-05-07 21:03 | 43.39381 | -67.60811 | 37737 ft | 401 kts | 248° |
| 2026-05-07 21:04 | 43.37338 | -67.68003 | 37736 ft | 402 kts | 248° |
| 2026-05-07 21:04 | 43.35316 | -67.75110 | 37735 ft | 402 kts | 248° |
| 2026-05-07 21:05 | 43.33275 | -67.82259 | 37744 ft | 402 kts | 248° |
| 2026-05-07 21:05 | 43.31225 | -67.89414 | 37753 ft | 401 kts | 248° |
| 2026-05-07 21:06 | 43.29177 | -67.96551 | 37745 ft | 401 kts | 248° |
| 2026-05-07 21:06 | 43.27123 | -68.03679 | 37748 ft | 401 kts | 248° |
| 2026-05-07 21:07 | 43.25037 | -68.10799 | 37747 ft | 402 kts | 248° |
| 2026-05-07 21:07 | 43.22944 | -68.17918 | 37751 ft | 402 kts | 248° |
| 2026-05-07 21:08 | 43.20869 | -68.25031 | 37747 ft | 401 kts | 248° |
| 2026-05-07 21:08 | 43.18800 | -68.32133 | 37748 ft | 401 kts | 248° |
| 2026-05-07 21:09 | 43.16725 | -68.39235 | 37743 ft | 401 kts | 248° |
| 2026-05-07 21:09 | 43.14652 | -68.46312 | 37739 ft | 400 kts | 247° |
| 2026-05-07 21:10 | 43.12596 | -68.53316 | 37744 ft | 397 kts | 247° |
| 2026-05-07 21:10 | 43.10539 | -68.60295 | 37741 ft | 389 kts | 247° |
| 2026-05-07 21:10 | 43.09544 | -68.63674 | 37737 ft | 376 kts | 246° |
| 2026-05-07 21:11 | 43.08569 | -68.66973 | 37549 ft | 374 kts | 246° |
| 2026-05-07 21:11 | 43.07592 | -68.70271 | 37221 ft | 373 kts | 246° |
| 2026-05-07 21:11 | 43.05639 | -68.76850 | 36203 ft | 372 kts | 246° |
| 2026-05-07 21:12 | 43.04665 | -68.80121 | 35650 ft | 371 kts | 246° |
| 2026-05-07 21:12 | 43.03688 | -68.83403 | 35095 ft | 375 kts | 246° |
| 2026-05-07 21:12 | 43.02697 | -68.86727 | 34539 ft | 380 kts | 246° |
| 2026-05-07 21:12 | 43.01694 | -68.90089 | 33977 ft | 382 kts | 246° |
| 2026-05-07 21:13 | 43.00690 | -68.93454 | 33396 ft | 383 kts | 246° |
| 2026-05-07 21:13 | 42.99695 | -68.96784 | 32853 ft | 383 kts | 246° |
| 2026-05-07 21:13 | 42.98669 | -69.00207 | 32274 ft | 385 kts | 246° |
| 2026-05-07 21:13 | 42.97664 | -69.03559 | 31661 ft | 388 kts | 246° |
| 2026-05-07 21:14 | 42.96639 | -69.06972 | 31062 ft | 389 kts | 246° |
| 2026-05-07 21:14 | 42.95605 | -69.10407 | 30430 ft | 391 kts | 246° |
| 2026-05-07 21:14 | 42.94556 | -69.13844 | 29803 ft | 393 kts | 245° |
| 2026-05-07 21:14 | 42.93493 | -69.17310 | 29170 ft | 396 kts | 245° |
| 2026-05-07 21:15 | 42.92429 | -69.20786 | 28537 ft | 398 kts | 245° |
| 2026-05-07 21:15 | 42.91361 | -69.24289 | 27903 ft | 401 kts | 246° |
| 2026-05-07 21:15 | 42.90288 | -69.27819 | 27257 ft | 404 kts | 246° |
| 2026-05-07 21:15 | 42.89208 | -69.31372 | 26615 ft | 407 kts | 246° |
| 2026-05-07 21:16 | 42.88121 | -69.34949 | 25928 ft | 410 kts | 246° |
| 2026-05-07 21:16 | 42.87026 | -69.38553 | 25182 ft | 413 kts | 246° |
| 2026-05-07 21:16 | 42.85920 | -69.42185 | 24437 ft | 415 kts | 246° |
| 2026-05-07 21:16 | 42.84824 | -69.45778 | 23696 ft | 417 kts | 246° |
| 2026-05-07 21:17 | 42.83706 | -69.49443 | 22943 ft | 417 kts | 246° |
| 2026-05-07 21:17 | 42.82595 | -69.53078 | 22199 ft | 414 kts | 246° |
| 2026-05-07 21:17 | 42.81493 | -69.56681 | 21458 ft | 410 kts | 246° |
| 2026-05-07 21:17 | 42.80399 | -69.60252 | 20724 ft | 407 kts | 246° |
| 2026-05-07 21:18 | 42.79314 | -69.63794 | 19996 ft | 404 kts | 246° |
| 2026-05-07 21:18 | 42.78237 | -69.67305 | 19272 ft | 400 kts | 246° |
| 2026-05-07 21:18 | 42.77162 | -69.70794 | 18568 ft | 397 kts | 246° |
| 2026-05-07 21:18 | 42.76102 | -69.74233 | 17974 ft | 394 kts | 246° |
| 2026-05-07 21:19 | 42.75041 | -69.77671 | 17333 ft | 393 kts | 246° |
| 2026-05-07 21:19 | 42.73980 | -69.81101 | 16656 ft | 391 kts | 247° |
| 2026-05-07 21:19 | 42.72929 | -69.84497 | 15966 ft | 387 kts | 247° |
| 2026-05-07 21:19 | 42.71890 | -69.87850 | 15274 ft | 383 kts | 247° |
| 2026-05-07 21:20 | 42.70859 | -69.91179 | 14585 ft | 381 kts | 247° |
| 2026-05-07 21:20 | 42.69830 | -69.94482 | 13889 ft | 375 kts | 247° |
| 2026-05-07 21:20 | 42.68782 | -69.97706 | 13233 ft | 372 kts | 245° |
| 2026-05-07 21:20 | 42.67707 | -70.00886 | 12669 ft | 370 kts | 245° |
| 2026-05-07 21:21 | 42.66627 | -70.04047 | 12116 ft | 367 kts | 245° |
| 2026-05-07 21:21 | 42.65565 | -70.07155 | 11561 ft | 365 kts | 245° |
| 2026-05-07 21:21 | 42.64502 | -70.10265 | 11163 ft | 364 kts | 246° |
| 2026-05-07 21:21 | 42.63452 | -70.13344 | 10968 ft | 347 kts | 245° |
| 2026-05-07 21:22 | 42.62476 | -70.16203 | 10804 ft | 322 kts | 245° |
| 2026-05-07 21:22 | 42.61563 | -70.18869 | 10609 ft | 301 kts | 246° |
| 2026-05-07 21:22 | 42.60632 | -70.21329 | 10261 ft | 287 kts | 238° |
| 2026-05-07 21:22 | 42.59294 | -70.23273 | 9806 ft | 281 kts | 217° |
| 2026-05-07 21:23 | 42.57570 | -70.24529 | 9206 ft | 283 kts | 206° |
| 2026-05-07 21:23 | 42.55746 | -70.25539 | 8622 ft | 283 kts | 204° |
| 2026-05-07 21:23 | 42.53916 | -70.26499 | 8166 ft | 278 kts | 203° |
| 2026-05-07 21:23 | 42.52134 | -70.27435 | 7785 ft | 272 kts | 204° |
| 2026-05-07 21:24 | 42.50378 | -70.28378 | 7411 ft | 271 kts | 206° |
| 2026-05-07 21:24 | 42.48782 | -70.29697 | 7123 ft | 265 kts | 225° |
| 2026-05-07 21:24 | 42.47729 | -70.31701 | 7044 ft | 261 kts | 249° |
| 2026-05-07 21:24 | 42.47173 | -70.34048 | 6995 ft | 262 kts | 257° |
| 2026-05-07 21:25 | 42.46746 | -70.36443 | 6943 ft | 262 kts | 258° |
| 2026-05-07 21:25 | 42.46341 | -70.38844 | 6879 ft | 261 kts | 258° |
| 2026-05-07 21:25 | 42.45940 | -70.41235 | 6810 ft | 261 kts | 258° |
| 2026-05-07 21:25 | 42.45536 | -70.43630 | 6749 ft | 261 kts | 258° |
| 2026-05-07 21:26 | 42.45132 | -70.46026 | 6688 ft | 261 kts | 258° |
| 2026-05-07 21:26 | 42.44724 | -70.48423 | 6623 ft | 261 kts | 258° |
| 2026-05-07 21:26 | 42.44320 | -70.50780 | 6561 ft | 259 kts | 258° |
| 2026-05-07 21:26 | 42.43913 | -70.53167 | 6500 ft | 260 kts | 258° |
| 2026-05-07 21:27 | 42.43500 | -70.55551 | 6438 ft | 259 kts | 258° |
| 2026-05-07 21:27 | 42.43088 | -70.57928 | 6369 ft | 260 kts | 258° |
| 2026-05-07 21:27 | 42.42676 | -70.60328 | 6039 ft | 262 kts | 258° |
| 2026-05-07 21:27 | 42.42265 | -70.62715 | 5658 ft | 258 kts | 258° |
| 2026-05-07 21:28 | 42.41861 | -70.65063 | 5296 ft | 252 kts | 258° |
| 2026-05-07 21:28 | 42.41473 | -70.67301 | 4864 ft | 237 kts | 258° |
| 2026-05-07 21:28 | 42.41101 | -70.69428 | 4410 ft | 226 kts | 258° |
| 2026-05-07 21:28 | 42.40760 | -70.71493 | 4096 ft | 224 kts | 259° |
| 2026-05-07 21:29 | 42.40438 | -70.73468 | 3792 ft | 204 kts | 259° |
| 2026-05-07 21:29 | 42.40140 | -70.75253 | 3508 ft | 185 kts | 258° |
| 2026-05-07 21:29 | 42.39853 | -70.76864 | 3248 ft | 175 kts | 258° |
| 2026-05-07 21:29 | 42.39568 | -70.78458 | 3024 ft | 173 kts | 258° |
| 2026-05-07 21:30 | 42.39291 | -70.80001 | 2782 ft | 163 kts | 257° |
| 2026-05-07 21:30 | 42.39036 | -70.81443 | 2562 ft | 156 kts | 257° |
| 2026-05-07 21:30 | 42.38784 | -70.82865 | 2377 ft | 155 kts | 258° |
| 2026-05-07 21:30 | 42.38536 | -70.84281 | 2169 ft | 154 kts | 258° |
| 2026-05-07 21:31 | 42.38289 | -70.85685 | 1966 ft | 152 kts | 258° |
| 2026-05-07 21:31 | 42.38049 | -70.87065 | 1776 ft | 150 kts | 257° |
| 2026-05-07 21:31 | 42.37807 | -70.88448 | 1582 ft | 151 kts | 258° |
| 2026-05-07 21:31 | 42.37568 | -70.89828 | 1375 ft | 151 kts | 258° |
| 2026-05-07 21:32 | 42.37324 | -70.91199 | 1214 ft | 149 kts | 256° |
| 2026-05-07 21:32 | 42.37083 | -70.92578 | 1097 ft | 151 kts | 258° |
| 2026-05-07 21:32 | 42.36857 | -70.93959 | 844 ft | 150 kts | 257° |
| 2026-05-07 21:32 | 42.36609 | -70.95333 | 622 ft | 149 kts | 258° |
| 2026-05-07 21:33 | 42.36376 | -70.96725 | 405 ft | 151 kts | 257° |
| 2026-05-07 21:33 | 42.36138 | -70.98063 | 186 ft | 144 kts | 259° |
| 2026-05-07 21:33 | 42.35918 | -70.99368 | 35 ft | 136 kts | 257° |
| 2026-05-07 21:33 | 42.35788 | -71.00109 | 33 ft | 43 kts | 256° |
| 2026-05-07 21:34 | 42.35752 | -71.00374 | 32 ft | 18 kts | 276° |
| 2026-05-07 21:34 | 42.35762 | -71.00457 | 33 ft | 0 kts | 278° |
| 2026-05-07 21:34 | 42.35762 | -71.00459 | 31 ft | 3 kts | 278° |
| 2026-05-07 21:35 | 42.35770 | -71.00533 | 33 ft | 10 kts | 278° |
| 2026-05-07 21:35 | 42.35780 | -71.00628 | 33 ft | 10 kts | 277° |
| 2026-05-07 21:35 | 42.35789 | -71.00721 | 33 ft | 10 kts | 277° |
| 2026-05-07 21:35 | 42.35798 | -71.00810 | 33 ft | 9 kts | 277° |
| 2026-05-07 21:36 | 42.35808 | -71.00894 | 33 ft | 9 kts | 279° |
| 2026-05-07 21:36 | 42.35814 | -71.00952 | 33 ft | 10 kts | 278° |
| 2026-05-07 21:36 | 42.35824 | -71.01047 | 33 ft | 11 kts | 278° |
| 2026-05-07 21:36 | 42.35835 | -71.01150 | 33 ft | 11 kts | 278° |
| 2026-05-07 21:37 | 42.35845 | -71.01253 | 33 ft | 11 kts | 277° |
| 2026-05-07 21:37 | 42.35855 | -71.01351 | 33 ft | 10 kts | 277° |
| 2026-05-07 21:37 | 42.35865 | -71.01443 | 33 ft | 9 kts | 279° |
| 2026-05-07 21:37 | 42.35876 | -71.01528 | 33 ft | 9 kts | 280° |
| 2026-05-07 21:38 | 42.35890 | -71.01600 | 33 ft | 6 kts | 294° |
| 2026-05-07 21:38 | 42.35914 | -71.01625 | 32 ft | 3 kts | 338° |
| 2026-05-07 21:38 | 42.35929 | -71.01626 | 33 ft | 3 kts | 360° |
| 2026-05-07 21:38 | 42.35982 | -71.01605 | 33 ft | 12 kts | 19° |
| 2026-05-07 21:39 | 42.36087 | -71.01554 | 31 ft | 20 kts | 20° |
| 2026-05-07 21:39 | 42.36233 | -71.01482 | 33 ft | 23 kts | 20° |
| 2026-05-07 21:39 | 42.36378 | -71.01412 | 33 ft | 22 kts | 19° |
| 2026-05-07 21:39 | 42.36512 | -71.01342 | 33 ft | 20 kts | 25° |
| 2026-05-07 21:40 | 42.36630 | -71.01273 | 33 ft | 17 kts | 18° |
| 2026-05-07 21:40 | 42.36733 | -71.01247 | 33 ft | 12 kts | 359° |
| 2026-05-07 21:40 | 42.36789 | -71.01271 | 33 ft | 7 kts | 324° |
| 2026-05-07 21:40 | 42.36807 | -71.01311 | 33 ft | 4 kts | 286° |
| 2026-05-07 21:41 | 42.36807 | -71.01340 | 33 ft | 3 kts | 263° |
| 2026-05-07 21:41 | 42.36804 | -71.01369 | 33 ft | 3 kts | 259° |
| 2026-05-07 21:41 | 42.36800 | -71.01401 | 33 ft | 3 kts | 261° |
| 2026-05-07 21:41 | 42.36799 | -71.01414 | 33 ft | 0 kts | 261° |